VS3 / G-VSXY 7700 Squawk Report (17th of January, 2019)

Aircraft A333 Reg No. G-VSXY Age 8 years old
Model A330 Jet engines 2 First flight 12-01-11
Registered 23-02-11 Rollout N/A Delivered 24-02-11
Construction No. 1195 Line No. N/A Series 343X
ADSHEX 4063E6 Airline name Virgin Atlantic Airways Owner Aercap Holdings N.V.
Airfield based Heathrow~Gtr London~G First tracked 2017-07-14 03:42:00

Flight history for G-VSXY

Route Flight No Date Playback
Miami Intl (MIA) - Heathrow (LHR) VS6 2019-02-16 09:57:00
Heathrow (LHR) - Miami Intl (MIA) VS5 2019-02-15 22:49:00
Miami Intl (MIA) - Heathrow (LHR) VS6 2019-02-15 13:22:00
Heathrow (LHR) - Miami Intl (MIA) VS5 2019-02-15 02:11:00
Miami Intl (MIA) - Heathrow (LHR) VS6 2019-02-14 09:49:00
Heathrow (LHR) - Miami Intl (MIA) VS5 2019-02-13 23:39:00
???? N/A 2019-02-12 00:28:00
John F Kennedy Intl (JFK) - Heathrow (LHR) VS4 2019-02-11 06:19:00
Heathrow (LHR) - John F Kennedy Intl (JFK) VS137 2019-02-10 20:54:00
???? VS132 2019-02-10 12:56:00
Heathrow (LHR) - Grantley Adams Intl (BGI) VS131 2019-02-09 21:27:00
Logan International Airport (BOS) - Heathrow (LHR) VS12 2019-02-09 12:35:00
Heathrow (LHR) - Logan International Airport (BOS) VS11 2019-02-09 02:31:00
John F Kennedy Intl (JFK) - Heathrow (LHR) VS10 2019-02-08 09:57:00
Heathrow (LHR) - John F Kennedy Intl (JFK) VS45 2019-02-07 22:50:00
Washington Dulles Intl (IAD) - Heathrow (LHR) VS22 2019-02-07 07:16:00
Heathrow (LHR) - Washington Dulles Intl (IAD) VS21 2019-02-06 19:42:00
Logan International Airport (BOS) - Heathrow (LHR) VS12 2019-02-06 11:39:00
Heathrow (LHR) - Logan International Airport (BOS) VS11 2019-02-06 02:23:00
John F Kennedy Intl (JFK) - Heathrow (LHR) VS138 2019-02-04 08:33:00
Time Lat Lon Altitude Heading Speed Vertical Rate
2019-01-17 10:42:42 GMT 51.470856 -0.465713 0 59 4 0
2019-01-17 10:42:21 GMT 51.470657 -0.466290 0 53 7 0
2019-01-17 10:42:11 GMT 51.470528 -0.466690 0 25 7 0
2019-01-17 10:42:00 GMT 51.470318 -0.466938 0 337 8 0
2019-01-17 10:41:50 GMT 51.470085 -0.466785 0 323 9 0
2019-01-17 10:41:05 GMT 51.468552 -0.465088 0 326 10 0
2019-01-17 10:40:56 GMT 51.468189 -0.464692 0 317 11 0
2019-01-17 10:40:49 GMT 51.467968 -0.464401 0 329 10 0
2019-01-17 10:40:43 GMT 51.467747 -0.464230 0 351 9 0
2019-01-17 10:40:38 GMT 51.467514 -0.464209 0 357 9 0
2019-01-17 10:40:33 GMT 51.467293 -0.464191 0 354 9 0
2019-01-17 10:40:28 GMT 51.467136 -0.464172 0 354 9 0
2019-01-17 10:40:23 GMT 51.466942 -0.464172 0 16 9 0
2019-01-17 10:40:13 GMT 51.466606 -0.464535 0 81 8 0
2019-01-17 10:40:08 GMT 51.466599 -0.464803 0 90 8 0
2019-01-17 10:40:03 GMT 51.466599 -0.465063 0 90 10 0
2019-01-17 10:39:52 GMT 51.466583 -0.465870 0 90 12 0
2019-01-17 10:39:42 GMT 51.466587 -0.466696 0 90 11 0
2019-01-17 10:39:31 GMT 51.466583 -0.467453 0 90 9 0
2019-01-17 10:39:21 GMT 51.466576 -0.468032 0 87 8 0
2019-01-17 10:39:09 GMT 51.466576 -0.468682 0 90 7 0
2019-01-17 10:39:01 GMT 51.466576 -0.469053 0 90 6 0
2019-01-17 10:38:49 GMT 51.466583 -0.469513 0 90 5 0
2019-01-17 10:38:38 GMT 51.466583 -0.469799 0 90 3 0
2019-01-17 10:37:46 GMT 51.466576 -0.470018 0 90 2 0
2019-01-17 10:37:39 GMT 51.466583 -0.470028 0 90 2 0
2019-01-17 10:37:34 GMT 51.466576 -0.470018 0 90 2 0
2019-01-17 10:37:22 GMT 51.466583 -0.470028 0 90 2 0
2019-01-17 10:37:13 GMT 51.466576 -0.470111 0 90 4 0
2019-01-17 10:37:07 GMT 51.466576 -0.470334 0 90 8 0
2019-01-17 10:36:58 GMT 51.466572 -0.470886 0 87 8 0
2019-01-17 10:36:47 GMT 51.466576 -0.471410 0 90 7 0
2019-01-17 10:36:38 GMT 51.466572 -0.471859 0 90 8 0
2019-01-17 10:36:24 GMT 51.466564 -0.472653 0 90 8 0
2019-01-17 10:36:15 GMT 51.466572 -0.473080 0 90 6 0
2019-01-17 10:36:07 GMT 51.466572 -0.473385 0 87 5 0
2019-01-17 10:35:56 GMT 51.466564 -0.473637 0 87 3 0
2019-01-17 10:35:01 GMT 51.466553 -0.473767 0 90 2 0
2019-01-17 10:34:45 GMT 51.466560 -0.473785 0 90 2 0
2019-01-17 10:34:41 GMT 51.466553 -0.473767 0 90 2 0
2019-01-17 10:34:26 GMT 51.466553 -0.473785 0 90 2 0
2019-01-17 10:34:16 GMT 51.466560 -0.473785 0 90 2 0
2019-01-17 10:33:56 GMT 51.466553 -0.473785 0 90 2 0
2019-01-17 10:33:51 GMT 51.466560 -0.473785 0 90 2 0
2019-01-17 10:33:41 GMT 51.466553 -0.473767 0 90 2 0
2019-01-17 10:33:27 GMT 51.466560 -0.473785 0 90 2 0
2019-01-17 10:33:21 GMT 51.466553 -0.473767 0 90 2 0
2019-01-17 10:33:01 GMT 51.466560 -0.473785 0 90 1 0
2019-01-17 10:32:51 GMT 51.466553 -0.473785 0 90 1 0
2019-01-17 10:32:31 GMT 51.466560 -0.473785 0 90 2 0
2019-01-17 10:32:20 GMT 51.466587 -0.473990 0 81 5 0
2019-01-17 10:32:09 GMT 51.466587 -0.474528 0 47 7 0
2019-01-17 10:32:05 GMT 51.466530 -0.474676 0 33 7 0
2019-01-17 10:32:00 GMT 51.466442 -0.474834 0 14 7 0
2019-01-17 10:31:48 GMT 51.466106 -0.474936 0 0 9 0
2019-01-17 10:31:35 GMT 51.465675 -0.474911 0 2 10 0
2019-01-17 10:31:29 GMT 51.465363 -0.474973 0 354 12 0
2019-01-17 10:31:18 GMT 51.464893 -0.474546 0 284 14 0
2019-01-17 10:31:06 GMT 51.464859 -0.472616 0 270 40 0
2019-01-17 10:30:53 GMT 51.464863 -0.466766 0 270 80 0
2019-01-17 10:30:48 GMT 51.464859 -0.463875 0 270 94 0
2019-01-17 10:30:38 GMT 51.464882 -0.455877 0 270 125 0
2019-01-17 10:30:28 GMT 51.464928 -0.446802 0 270 150 0
2019-01-17 10:30:18 GMT 51.464943 -0.434952 150 270 154 -768
2019-01-17 10:30:15 GMT 51.464996 -0.427205 225 270 155 -640
2019-01-17 10:30:11 GMT 51.465042 -0.422825 550 270 154 -704
2019-01-17 10:30:08 GMT 51.465042 -0.422825 275 270 154 -768
2019-01-17 10:30:05 GMT 51.465034 -0.419846 325 270 154 -704
2019-01-17 10:30:02 GMT 51.465042 -0.415773 375 270 154 -704
2019-01-17 10:29:58 GMT 51.465080 -0.411453 425 270 155 -704
2019-01-17 10:29:55 GMT 51.465088 -0.408647 450 270 155 -832
2019-01-17 10:29:52 GMT 51.465088 -0.405010 475 270 156 -768
2019-01-17 10:29:47 GMT 51.465130 -0.398712 550 270 157 -960
2019-01-17 10:29:44 GMT 51.465134 -0.395285 600 270 156 -960
2019-01-17 10:29:41 GMT 51.465179 -0.387194 725 270 155 -896
2019-01-17 10:29:36 GMT 51.465179 -0.387194 925 270 155 -640
2019-01-17 10:29:33 GMT 51.465179 -0.384002 775 270 154 -768
2019-01-17 10:29:30 GMT 51.465221 -0.380325 875 270 155 -704
2019-01-17 10:29:26 GMT 51.465225 -0.375762 900 270 154 -832
2019-01-17 10:29:23 GMT 51.465225 -0.372125 925 270 154 -768
2019-01-17 10:29:20 GMT 51.465221 -0.368500 1,000 270 154 -768
2019-01-17 10:29:15 GMT 51.465221 -0.363922 1,025 270 156 -640
2019-01-17 10:29:12 GMT 51.465225 -0.359802 1,225 270 155 -832
2019-01-17 10:29:09 GMT 51.465267 -0.355911 1,150 270 155 -896
2019-01-17 10:29:04 GMT 51.465317 -0.349261 1,200 270 154 -704
2019-01-17 10:29:01 GMT 51.465363 -0.346680 1,200 270 155 -768
2019-01-17 10:28:58 GMT 51.465363 -0.342580 1,250 270 154 -704
2019-01-17 10:28:55 GMT 51.465408 -0.336642 1,325 271 154 -832
2019-01-17 10:28:52 GMT 51.465408 -0.336642 1,350 271 154 -768
2019-01-17 10:28:49 GMT 51.465363 -0.333252 1,450 271 154 -896
2019-01-17 10:28:46 GMT 51.465363 -0.328699 1,425 270 154 -832
2019-01-17 10:28:43 GMT 51.465363 -0.325470 1,575 271 154 -896
2019-01-17 10:28:40 GMT 51.465317 -0.317787 1,600 271 154 -704
2019-01-17 10:28:36 GMT 51.465317 -0.317787 1,575 271 154 -704
2019-01-17 10:28:32 GMT 51.465271 -0.312962 1,625 271 155 -832
2019-01-17 10:28:28 GMT 51.465271 -0.308805 1,675 271 156 -960
2019-01-17 10:28:25 GMT 51.465271 -0.306058 1,800 270 157 -896
2019-01-17 10:28:22 GMT 51.465267 -0.301895 1,800 270 157 -960
2019-01-17 10:28:19 GMT 51.465221 -0.299377 1,875 270 157 -896
2019-01-17 10:28:16 GMT 51.465267 -0.294037 1,975 270 158 -768
2019-01-17 10:28:13 GMT 51.465267 -0.291214 1,950 270 158 -768
2019-01-17 10:28:10 GMT 51.465313 -0.287247 2,000 270 160 -704
2019-01-17 10:28:07 GMT 51.465317 -0.283715 2,000 271 160 -640
2019-01-17 10:28:03 GMT 51.465317 -0.279409 2,075 270 161 -832
2019-01-17 10:28:00 GMT 51.465317 -0.276366 2,100 270 162 -896
2019-01-17 10:27:57 GMT 51.465363 -0.273470 2,150 270 162 -896
2019-01-17 10:27:54 GMT 51.465363 -0.269165 2,375 270 163 -960
2019-01-17 10:27:51 GMT 51.465363 -0.265503 2,225 270 163 -960
2019-01-17 10:27:48 GMT 51.465363 -0.261154 2,300 271 162 -960
2019-01-17 10:27:45 GMT 51.465317 -0.257362 2,350 271 162 -1024
2019-01-17 10:27:42 GMT 51.465313 -0.253525 2,475 270 163 -1024
2019-01-17 10:27:39 GMT 51.465317 -0.252092 2,500 270 164 -896
2019-01-17 10:27:36 GMT 51.465363 -0.243555 2,550 270 164 -768
2019-01-17 10:27:33 GMT 51.465363 -0.243555 2,600 270 174 -512
2019-01-17 10:27:30 GMT 51.465408 -0.239182 2,600 269 166 -640
2019-01-17 10:27:27 GMT 51.465454 -0.235761 2,625 269 169 -576
2019-01-17 10:27:24 GMT 51.465546 -0.230713 2,675 270 175 -704
2019-01-17 10:27:21 GMT 51.465595 -0.227203 2,725 270 175 -576
2019-01-17 10:27:18 GMT 51.465591 -0.223809 2,725 271 176 -768
2019-01-17 10:27:15 GMT 51.465546 -0.217277 2,825 273 177 -1280
2019-01-17 10:27:09 GMT 51.465454 -0.213852 2,875 274 177 -1536
2019-01-17 10:27:06 GMT 51.465267 -0.208893 3,325 274 177 -832
2019-01-17 10:27:03 GMT 51.465130 -0.205231 3,050 272 177 -640
2019-01-17 10:27:00 GMT 51.464943 -0.199509 3,200 271 177 -576
2019-01-17 10:26:57 GMT 51.464951 -0.196640 3,100 268 177 320
2019-01-17 10:26:54 GMT 51.465034 -0.192947 3,100 268 178 448
2019-01-17 10:26:51 GMT 51.465134 -0.189811 3,100 269 180 384
2019-01-17 10:26:48 GMT 51.465267 -0.185089 3,075 269 181 320
2019-01-17 10:26:44 GMT 51.465363 -0.179443 3,050 270 183 -192
2019-01-17 10:26:41 GMT 51.465363 -0.176697 3,100 273 185 -1216
2019-01-17 10:26:38 GMT 51.465271 -0.170659 3,100 273 185 -1408
2019-01-17 10:26:35 GMT 51.465179 -0.167393 3,175 275 184 -1600
2019-01-17 10:26:31 GMT 51.464943 -0.162506 3,300 276 182 -1280
2019-01-17 10:26:28 GMT 51.464756 -0.159225 3,350 277 183 -1088
2019-01-17 10:26:25 GMT 51.464401 -0.154699 3,425 279 182 -896
2019-01-17 10:26:22 GMT 51.464058 -0.150375 3,525 281 181 -832
2019-01-17 10:26:19 GMT 51.463669 -0.146682 3,550 285 179 -960
2019-01-17 10:26:16 GMT 51.463028 -0.141412 3,550 285 179 -960
2019-01-17 10:26:13 GMT 51.462479 -0.138071 3,625 293 174 -1088
2019-01-17 10:26:10 GMT 51.461636 -0.134125 3,675 293 174 -1088
2019-01-17 10:26:07 GMT 51.460693 -0.130574 3,775 296 174 -1024
2019-01-17 10:26:04 GMT 51.459774 -0.127487 3,850 296 173 -960
2019-01-17 10:26:01 GMT 51.458984 -0.124741 3,850 296 172 -960
2019-01-17 10:25:58 GMT 51.457855 -0.120998 3,850 296 172 -960
2019-01-17 10:25:55 GMT 51.456608 -0.116882 4,000 296 172 -960
2019-01-17 10:25:52 GMT 51.455475 -0.112981 4,000 296 172 -896
2019-01-17 10:25:49 GMT 51.454742 -0.110383 4,000 296 172 -832
2019-01-17 10:25:46 GMT 51.453396 -0.105820 4,150 296 172 -768
2019-01-17 10:25:42 GMT 51.452045 -0.101166 4,150 296 172 -832
2019-01-17 10:25:39 GMT 51.451309 -0.098654 4,175 296 172 -768
2019-01-17 10:25:36 GMT 51.450512 -0.095901 4,200 296 172 -768
2019-01-17 10:25:33 GMT 51.448334 -0.088484 4,300 296 172 -768
2019-01-17 10:25:30 GMT 51.448334 -0.088484 4,375 298 171 -832
2019-01-17 10:25:27 GMT 51.447510 -0.085738 4,450 298 171 -832
2019-01-17 10:25:24 GMT 51.446045 -0.080913 4,375 298 171 -832
2019-01-17 10:25:21 GMT 51.444855 -0.077053 4,425 299 172 -640
2019-01-17 10:25:18 GMT 51.443714 -0.073624 4,475 306 170 -512
2019-01-17 10:25:14 GMT 51.442429 -0.069852 4,500 304 171 -512
2019-01-17 10:25:11 GMT 51.441330 -0.067106 4,525 306 170 -512
2019-01-17 10:25:08 GMT 51.439590 -0.063171 4,550 352 163 -832
2019-01-17 10:25:05 GMT 51.438354 -0.060870 4,550 320 166 -960
2019-01-17 10:25:02 GMT 51.436501 -0.058212 4,575 326 165 -1216
2019-01-17 10:24:59 GMT 51.434402 -0.056229 4,600 333 163 -1408
2019-01-17 10:24:56 GMT 51.432083 -0.054783 4,625 342 163 -1472
2019-01-17 10:24:53 GMT 51.430618 -0.054189 4,650 351 163 -960
2019-01-17 10:24:50 GMT 51.428352 -0.053558 4,700 353 164 -640
2019-01-17 10:24:47 GMT 51.426071 -0.053101 4,725 353 165 -384
2019-01-17 10:24:44 GMT 51.423649 -0.052643 4,725 353 165 -384
2019-01-17 10:24:41 GMT 51.421555 -0.052185 4,750 353 164 -448
2019-01-17 10:24:38 GMT 51.418854 -0.051575 4,800 354 164 -768
2019-01-17 10:24:34 GMT 51.416290 -0.051072 4,825 354 162 -1024
2019-01-17 10:24:31 GMT 51.413452 -0.050552 4,900 355 162 -1024
2019-01-17 10:24:28 GMT 51.411777 -0.050278 4,925 355 162 -1024
2019-01-17 10:24:25 GMT 51.409683 -0.049973 5,025 355 161 -896
2019-01-17 10:24:22 GMT 51.407318 -0.049587 5,025 355 161 -832
2019-01-17 10:24:19 GMT 51.404755 -0.049216 5,100 354 161 -768
2019-01-17 10:24:16 GMT 51.402374 -0.048845 5,375 354 160 -768
2019-01-17 10:24:13 GMT 51.400608 -0.048523 5,150 354 160 -768
2019-01-17 10:24:10 GMT 51.397488 -0.047989 5,200 355 160 -896
2019-01-17 10:24:07 GMT 51.395279 -0.047657 5,250 357 160 -896
2019-01-17 10:24:04 GMT 51.394230 -0.047531 5,275 357 161 -896
2019-01-17 10:24:01 GMT 51.392029 -0.047360 5,300 358 161 -896
2019-01-17 10:23:58 GMT 51.389339 -0.047226 5,375 5 163 -1088
2019-01-17 10:23:55 GMT 51.387222 -0.047286 5,375 7 163 -1216
2019-01-17 10:23:51 GMT 51.383698 -0.047731 5,450 16 165 -1664
2019-01-17 10:23:47 GMT 51.379990 -0.049364 5,500 27 168 -1664
2019-01-17 10:23:44 GMT 51.378571 -0.050478 5,700 45 176 -1280
2019-01-17 10:23:41 GMT 51.376774 -0.052185 5,575 40 173 -1344
2019-01-17 10:23:38 GMT 51.374725 -0.054703 5,625 51 180 -1280
2019-01-17 10:23:35 GMT 51.373234 -0.057220 5,775 87 202 -448
2019-01-17 10:23:32 GMT 51.371979 -0.059814 5,650 65 188 -1280
2019-01-17 10:23:29 GMT 51.370239 -0.065250 5,650 73 193 -1280
2019-01-17 10:23:25 GMT 51.369095 -0.071634 5,775 87 202 -448
2019-01-17 10:23:22 GMT 51.368912 -0.073935 5,775 87 201 -512
2019-01-17 10:23:19 GMT 51.368626 -0.079269 5,775 87 201 -512
2019-01-17 10:23:16 GMT 51.368546 -0.081952 5,775 87 202 -448
2019-01-17 10:23:13 GMT 51.368271 -0.091751 5,850 86 201 -640
2019-01-17 10:23:10 GMT 51.368271 -0.091751 6,025 86 211 -1408
2019-01-17 10:23:07 GMT 51.368069 -0.097733 5,875 86 202 -704
2019-01-17 10:23:04 GMT 51.367905 -0.101624 5,925 86 203 -896
2019-01-17 10:23:01 GMT 51.367722 -0.106671 6,000 86 204 -1408
2019-01-17 10:22:58 GMT 51.367649 -0.110016 6,025 86 205 -1472
2019-01-17 10:22:55 GMT 51.367462 -0.115738 6,050 86 205 -1472
2019-01-17 10:22:52 GMT 51.367310 -0.119068 6,150 86 205 -1472
2019-01-17 10:22:49 GMT 51.366989 -0.128495 6,250 86 206 -1408
2019-01-17 10:22:46 GMT 51.366989 -0.128495 6,300 86 207 -1408
2019-01-17 10:22:43 GMT 51.366806 -0.133024 6,400 86 208 -1344
2019-01-17 10:22:40 GMT 51.366623 -0.137634 6,400 86 210 -1344
2019-01-17 10:22:37 GMT 51.366436 -0.142212 6,500 86 209 -1344
2019-01-17 10:22:34 GMT 51.366253 -0.146561 6,550 86 210 -1344
2019-01-17 10:22:31 GMT 51.365982 -0.152769 6,700 86 211 -1600
2019-01-17 10:22:28 GMT 51.365879 -0.155640 6,775 86 212 -1536
2019-01-17 10:22:25 GMT 51.365662 -0.160267 6,825 86 212 -1536
2019-01-17 10:22:22 GMT 51.365459 -0.164642 6,875 86 213 -1728
2019-01-17 10:22:19 GMT 51.365204 -0.171624 7,300 86 213 -1728
2019-01-17 10:22:16 GMT 51.364994 -0.176315 7,100 86 213 -1728
2019-01-17 10:22:13 GMT 51.364609 -0.186693 7,175 86 215 -1280
2019-01-17 10:22:10 GMT 51.364609 -0.186693 7,250 86 217 -896
2019-01-17 10:22:07 GMT 51.364426 -0.190553 7,300 86 220 -640
2019-01-17 10:22:04 GMT 51.364296 -0.194702 7,350 86 220 -640
2019-01-17 10:22:01 GMT 51.364155 -0.197296 7,375 86 223 -576
2019-01-17 10:21:58 GMT 51.363922 -0.203552 7,450 86 228 -512
2019-01-17 10:21:55 GMT 51.363506 -0.214539 7,450 86 228 -512
2019-01-17 10:21:52 GMT 51.363506 -0.214539 7,475 86 229 -512
2019-01-17 10:21:49 GMT 51.363319 -0.218887 7,550 87 233 -512
2019-01-17 10:21:46 GMT 51.363178 -0.223694 7,500 87 233 -512
2019-01-17 10:21:43 GMT 51.362961 -0.231233 7,525 88 236 -576
2019-01-17 10:21:40 GMT 51.362869 -0.234721 7,550 89 237 -576
2019-01-17 10:21:36 GMT 51.362900 -0.245285 7,600 92 242 -640
2019-01-17 10:21:30 GMT 51.363132 -0.252762 7,650 94 245 -512
2019-01-17 10:21:27 GMT 51.363411 -0.258179 7,675 94 248 -512
2019-01-17 10:21:24 GMT 51.363739 -0.264414 7,700 95 250 -576
2019-01-17 10:21:21 GMT 51.363922 -0.268423 7,725 95 254 -896
2019-01-17 10:21:18 GMT 51.364288 -0.275104 7,750 95 253 -896
2019-01-17 10:21:14 GMT 51.365021 -0.286684 7,800 95 254 -1152
2019-01-17 10:21:11 GMT 51.365021 -0.286684 7,900 95 254 -832
2019-01-17 10:21:08 GMT 51.365368 -0.292282 7,900 95 254 -512
2019-01-17 10:21:05 GMT 51.365833 -0.299377 7,975 95 254 -256
2019-01-17 10:21:02 GMT 51.366158 -0.304947 7,975 95 254 -128
2019-01-17 10:20:58 GMT 51.366669 -0.313185 8,000 94 252 64
2019-01-17 10:20:55 GMT 51.366943 -0.317639 8,000 94 253 -64
2019-01-17 10:20:52 GMT 51.367134 -0.321808 8,000 94 252 0
2019-01-17 10:20:49 GMT 51.367493 -0.328476 8,000 94 254 128
2019-01-17 10:20:46 GMT 51.367741 -0.333328 8,000 94 253 64
2019-01-17 10:20:43 GMT 51.368042 -0.339314 8,000 94 254 128
2019-01-17 10:20:40 GMT 51.368317 -0.344585 7,975 94 256 64
2019-01-17 10:20:37 GMT 51.368671 -0.352173 7,975 94 260 -192
2019-01-17 10:20:34 GMT 51.368820 -0.355571 7,975 93 262 -192
2019-01-17 10:20:31 GMT 51.369137 -0.362549 7,975 93 263 -192
2019-01-17 10:20:28 GMT 51.369644 -0.375020 8,000 93 268 0
2019-01-17 10:20:22 GMT 51.369736 -0.378212 8,000 93 268 0
2019-01-17 10:20:19 GMT 51.370102 -0.387342 7,975 94 275 -128
2019-01-17 10:20:16 GMT 51.370209 -0.390167 7,975 94 275 -128
2019-01-17 10:20:13 GMT 51.370907 -0.403595 7,975 94 280 -128
2019-01-17 10:20:07 GMT 51.371372 -0.412216 7,975 94 282 -64
2019-01-17 10:20:04 GMT 51.371567 -0.415996 8,000 94 283 -64
2019-01-17 10:20:01 GMT 51.371796 -0.421860 8,000 93 284 0
2019-01-17 10:19:57 GMT 51.372253 -0.432327 8,000 93 283 0
2019-01-17 10:19:54 GMT 51.372528 -0.438637 8,000 94 284 0
2019-01-17 10:19:51 GMT 51.372677 -0.442352 8,000 94 284 0
2019-01-17 10:19:48 GMT 51.372986 -0.449920 8,000 93 283 0
2019-01-17 10:19:45 GMT 51.373306 -0.457046 8,000 94 284 0
2019-01-17 10:19:42 GMT 51.373608 -0.464172 8,000 93 284 0
2019-01-17 10:19:39 GMT 51.373810 -0.468775 8,000 93 284 0
2019-01-17 10:19:35 GMT 51.374222 -0.478425 8,000 93 284 0
2019-01-17 10:19:32 GMT 51.374493 -0.485153 8,000 93 284 0
2019-01-17 10:19:29 GMT 51.374680 -0.489708 8,000 93 284 0
2019-01-17 10:19:26 GMT 51.375000 -0.497725 8,000 93 284 0
2019-01-17 10:19:23 GMT 51.375320 -0.505668 8,000 93 284 0
2019-01-17 10:19:20 GMT 51.375469 -0.509415 8,000 93 284 0
2019-01-17 10:19:17 GMT 51.375687 -0.514056 8,000 93 284 0
2019-01-17 10:19:13 GMT 51.376076 -0.524063 8,000 93 284 0
2019-01-17 10:19:10 GMT 51.376308 -0.529938 8,000 93 283 0
2019-01-17 10:19:06 GMT 51.376602 -0.537514 8,000 93 283 0
2019-01-17 10:19:03 GMT 51.376877 -0.545456 8,000 93 283 0
2019-01-17 10:19:00 GMT 51.377144 -0.552521 8,000 93 284 0
2019-01-17 10:18:57 GMT 51.377285 -0.556335 8,000 93 284 0
2019-01-17 10:18:53 GMT 51.377563 -0.563420 8,000 93 284 0
2019-01-17 10:18:50 GMT 51.377838 -0.570101 8,000 93 284 0
2019-01-17 10:18:47 GMT 51.378067 -0.576411 8,000 93 284 0
2019-01-17 10:18:44 GMT 51.378403 -0.585632 8,000 93 284 0
2019-01-17 10:18:41 GMT 51.378914 -0.598679 8,000 93 284 0
2019-01-17 10:18:34 GMT 51.379147 -0.605774 8,000 93 284 0
2019-01-17 10:18:31 GMT 51.379440 -0.613750 8,000 93 284 0
2019-01-17 10:18:28 GMT 51.379486 -0.615457 8,000 93 283 0
2019-01-17 10:18:25 GMT 51.379845 -0.624619 8,000 93 283 0
2019-01-17 10:18:22 GMT 51.380035 -0.630081 8,000 93 282 64
2019-01-17 10:18:19 GMT 51.380264 -0.636749 8,000 93 282 0
2019-01-17 10:18:16 GMT 51.380447 -0.642181 8,000 93 283 0
2019-01-17 10:18:13 GMT 51.380676 -0.649307 8,000 93 282 0
2019-01-17 10:18:10 GMT 51.380905 -0.655542 8,000 93 282 64
2019-01-17 10:18:07 GMT 51.381100 -0.661774 8,000 93 282 64
2019-01-17 10:18:04 GMT 51.381454 -0.672170 8,000 93 282 0
2019-01-17 10:18:01 GMT 51.381454 -0.672170 8,000 93 282 0
2019-01-17 10:17:58 GMT 51.381752 -0.679703 8,000 93 282 -64
2019-01-17 10:17:54 GMT 51.382030 -0.688477 8,000 93 282 0
2019-01-17 10:17:51 GMT 51.382233 -0.693846 8,000 93 282 0
2019-01-17 10:17:48 GMT 51.382500 -0.701370 8,000 93 282 0
2019-01-17 10:17:45 GMT 51.382732 -0.707626 8,000 93 282 0
2019-01-17 10:17:42 GMT 51.382965 -0.714264 8,000 93 282 0
2019-01-17 10:17:39 GMT 51.383148 -0.720495 8,000 93 282 0
2019-01-17 10:17:33 GMT 51.383560 -0.731779 8,000 93 282 0
2019-01-17 10:17:30 GMT 51.383801 -0.738449 8,000 93 282 0
2019-01-17 10:17:27 GMT 51.383972 -0.742988 8,000 93 282 0
2019-01-17 10:17:24 GMT 51.384247 -0.750040 8,000 93 282 0
2019-01-17 10:17:21 GMT 51.384544 -0.757599 8,000 93 281 0
2019-01-17 10:17:18 GMT 51.384781 -0.763397 8,000 93 282 0
2019-01-17 10:17:15 GMT 51.385059 -0.770874 8,000 93 282 0
2019-01-17 10:17:12 GMT 51.385300 -0.777580 8,000 93 281 0
2019-01-17 10:17:09 GMT 51.385429 -0.780487 8,000 93 281 -64
2019-01-17 10:17:06 GMT 51.385666 -0.786265 8,000 93 280 0
2019-01-17 10:17:03 GMT 51.386082 -0.795441 8,000 93 281 0
2019-01-17 10:17:00 GMT 51.386314 -0.801239 8,000 93 280 0
2019-01-17 10:16:57 GMT 51.386581 -0.807866 8,000 93 279 -64
2019-01-17 10:16:54 GMT 51.386810 -0.813656 8,000 93 279 0
2019-01-17 10:16:51 GMT 51.387314 -0.826424 8,025 93 279 0
2019-01-17 10:16:48 GMT 51.387314 -0.826424 8,000 93 279 -64
2019-01-17 10:16:45 GMT 51.387478 -0.830994 8,000 93 279 0
2019-01-17 10:16:42 GMT 51.387817 -0.840009 8,000 93 279 -64
2019-01-17 10:16:39 GMT 51.387943 -0.843735 8,000 93 279 -64
2019-01-17 10:16:36 GMT 51.388130 -0.849075 8,000 93 280 -128
2019-01-17 10:16:33 GMT 51.388412 -0.856562 8,000 93 280 -192
2019-01-17 10:16:30 GMT 51.388733 -0.863986 8,025 93 280 -448
2019-01-17 10:16:27 GMT 51.388870 -0.867326 8,050 93 281 -512
2019-01-17 10:16:24 GMT 51.389145 -0.874378 8,075 93 281 -448
2019-01-17 10:16:21 GMT 51.389389 -0.880585 8,075 93 281 -448
2019-01-17 10:16:18 GMT 51.389854 -0.891800 8,150 93 281 -448
2019-01-17 10:16:12 GMT 51.390133 -0.899734 8,200 93 282 -512
2019-01-17 10:16:09 GMT 51.390427 -0.907189 8,250 93 282 -512
2019-01-17 10:16:06 GMT 51.390644 -0.913391 8,225 93 282 -512
2019-01-17 10:16:03 GMT 51.390785 -0.917587 8,225 93 282 -512
2019-01-17 10:16:00 GMT 51.391342 -0.932576 8,275 93 281 -448
2019-01-17 10:15:57 GMT 51.391342 -0.932576 8,300 93 282 -448
2019-01-17 10:15:54 GMT 51.391479 -0.937104 8,325 93 282 -512
2019-01-17 10:15:51 GMT 51.391762 -0.944595 8,350 93 282 -512
2019-01-17 10:15:48 GMT 51.391949 -0.949631 8,375 93 282 -512
2019-01-17 10:15:45 GMT 51.392227 -0.956650 8,375 93 282 -512
2019-01-17 10:15:42 GMT 51.392487 -0.962120 8,475 94 282 -448
2019-01-17 10:15:39 GMT 51.392647 -0.966721 8,475 94 282 -448
2019-01-17 10:15:36 GMT 51.393204 -0.979614 8,500 94 282 -448
2019-01-17 10:15:30 GMT 51.393539 -0.986246 8,525 94 281 -448
2019-01-17 10:15:27 GMT 51.393814 -0.992110 8,575 94 281 -448
2019-01-17 10:15:24 GMT 51.394230 -1.001205 8,600 94 280 -448
2019-01-17 10:15:21 GMT 51.394554 -1.007462 8,600 94 280 -448
2019-01-17 10:15:18 GMT 51.394821 -1.012821 8,625 94 280 -448
2019-01-17 10:15:15 GMT 51.395065 -1.018219 8,650 94 279 -448
2019-01-17 10:15:12 GMT 51.395325 -1.023139 8,675 94 279 -448
2019-01-17 10:15:09 GMT 51.395691 -1.031453 8,700 93 279 -448
2019-01-17 10:15:06 GMT 51.395996 -1.038818 8,725 93 279 -384
2019-01-17 10:15:02 GMT 51.396278 -1.044998 8,775 95 280 -512
2019-01-17 10:14:59 GMT 51.396606 -1.052015 8,775 95 281 -704
2019-01-17 10:14:56 GMT 51.396931 -1.056976 8,775 97 282 -896
2019-01-17 10:14:53 GMT 51.397346 -1.062775 8,850 98 282 -1088
2019-01-17 10:14:50 GMT 51.398026 -1.070647 8,875 98 283 -1024
2019-01-17 10:14:47 GMT 51.399395 -1.084290 8,975 99 284 -832
2019-01-17 10:14:43 GMT 51.399395 -1.084290 9,000 99 284 -832
2019-01-17 10:14:40 GMT 51.399956 -1.090088 9,050 98 285 -832
2019-01-17 10:14:37 GMT 51.400745 -1.098022 9,250 98 286 -1088
2019-01-17 10:14:34 GMT 51.401398 -1.105118 9,225 98 286 -1024
2019-01-17 10:14:28 GMT 51.402374 -1.115189 9,275 98 286 -1088
2019-01-17 10:14:25 GMT 51.402981 -1.121902 9,325 98 287 -1024
2019-01-17 10:14:22 GMT 51.403519 -1.127732 9,350 98 286 -1024
2019-01-17 10:14:19 GMT 51.404285 -1.136093 9,425 98 286 -1024
2019-01-17 10:14:16 GMT 51.404892 -1.142430 9,450 98 286 -1024
2019-01-17 10:14:12 GMT 51.405540 -1.149979 9,750 98 288 -960
2019-01-17 10:14:09 GMT 51.406174 -1.156682 9,575 98 288 -960
2019-01-17 10:14:06 GMT 51.406769 -1.163437 9,650 98 288 -896
2019-01-17 10:14:03 GMT 51.407124 -1.167297 9,650 98 289 -832
2019-01-17 10:14:00 GMT 51.407684 -1.173630 9,725 98 290 -704
2019-01-17 10:13:57 GMT 51.408966 -1.188157 9,775 97 293 -576
2019-01-17 10:13:54 GMT 51.408966 -1.188157 9,775 97 293 -576
2019-01-17 10:13:51 GMT 51.409515 -1.194540 9,825 97 295 -704
2019-01-17 10:13:47 GMT 51.410248 -1.203226 9,875 97 296 -832
2019-01-17 10:13:44 GMT 51.410889 -1.210575 10,000 97 297 -832
2019-01-17 10:13:41 GMT 51.411362 -1.216278 9,950 97 298 -832
2019-01-17 10:13:37 GMT 51.411850 -1.221932 9,975 97 298 -832
2019-01-17 10:13:34 GMT 51.412582 -1.230246 10,025 98 301 -832
2019-01-17 10:13:31 GMT 51.413223 -1.237259 10,275 99 303 -896
2019-01-17 10:13:27 GMT 51.414185 -1.247839 10,150 98 302 -960
2019-01-17 10:13:24 GMT 51.414642 -1.253109 10,150 98 302 -1024
2019-01-17 10:13:21 GMT 51.415466 -1.261498 10,225 98 302 -1024
2019-01-17 10:13:16 GMT 51.416519 -1.272113 10,550 99 303 -832
2019-01-17 10:13:13 GMT 51.416805 -1.275253 10,350 99 303 -832
2019-01-17 10:13:10 GMT 51.417618 -1.283248 10,425 99 304 -768
2019-01-17 10:13:07 GMT 51.418343 -1.290359 10,450 99 308 -1024
2019-01-17 10:13:04 GMT 51.419273 -1.299286 10,675 100 306 -1728
2019-01-17 10:13:01 GMT 51.419815 -1.304626 10,525 99 308 -1152
2019-01-17 10:12:55 GMT 51.421371 -1.318582 10,725 100 305 -1344
2019-01-17 10:12:52 GMT 51.422394 -1.327972 10,750 100 305 -1664
2019-01-17 10:12:49 GMT 51.422394 -1.327972 10,925 100 305 -1280
2019-01-17 10:12:45 GMT 51.424580 -1.347504 10,925 100 304 -1280
2019-01-17 10:12:42 GMT 51.424580 -1.347504 11,000 100 304 -1088
2019-01-17 10:12:39 GMT 51.425140 -1.352844 11,100 100 304 -1280
2019-01-17 10:12:36 GMT 51.425980 -1.360397 11,150 100 304 -1280
2019-01-17 10:12:33 GMT 51.426628 -1.366196 11,150 100 305 -1280
2019-01-17 10:12:30 GMT 51.427467 -1.373291 11,275 100 305 -1152
2019-01-17 10:12:27 GMT 51.428101 -1.379081 11,300 100 305 -1024
2019-01-17 10:12:24 GMT 51.428909 -1.386185 11,325 100 305 -896
2019-01-17 10:12:21 GMT 51.430492 -1.399994 11,400 100 306 -832
2019-01-17 10:12:15 GMT 51.431488 -1.408922 11,500 100 308 -1024
2019-01-17 10:12:12 GMT 51.432129 -1.414341 11,550 100 309 -1152
2019-01-17 10:12:09 GMT 51.433685 -1.428297 11,575 99 320 -1216
2019-01-17 10:12:06 GMT 51.433685 -1.428297 11,650 100 310 -1152
2019-01-17 10:12:03 GMT 51.434097 -1.431934 11,700 100 310 -1088
2019-01-17 10:12:00 GMT 51.435101 -1.440964 11,800 100 311 -1024
2019-01-17 10:11:57 GMT 51.435745 -1.446855 11,825 99 311 -960
2019-01-17 10:11:53 GMT 51.436779 -1.455917 11,850 99 312 -960
2019-01-17 10:11:50 GMT 51.437439 -1.462295 11,975 99 314 -768
2019-01-17 10:11:47 GMT 51.439526 -1.481552 11,975 99 315 -704
2019-01-17 10:11:43 GMT 51.439991 -1.486130 12,050 99 316 -704
2019-01-17 10:11:40 GMT 51.439991 -1.486130 12,050 99 317 -768
2019-01-17 10:11:37 GMT 51.440456 -1.490784 12,100 99 317 -768
2019-01-17 10:11:34 GMT 51.441330 -1.499114 12,175 99 320 -1216
2019-01-17 10:11:31 GMT 51.442841 -1.513515 12,225 99 320 -1024
2019-01-17 10:11:25 GMT 51.443623 -1.520996 12,275 99 320 -1216
2019-01-17 10:11:22 GMT 51.444180 -1.526642 12,350 99 320 -1216
2019-01-17 10:11:19 GMT 51.445038 -1.535042 12,350 99 320 -1216
2019-01-17 10:11:16 GMT 51.445541 -1.539645 12,475 99 320 -1088
2019-01-17 10:11:13 GMT 51.446461 -1.548538 12,500 99 321 -960
2019-01-17 10:11:10 GMT 51.447052 -1.554194 12,550 99 321 -896
2019-01-17 10:11:07 GMT 51.448059 -1.563993 12,625 99 322 -832
2019-01-17 10:11:04 GMT 51.448563 -1.568744 12,675 99 322 -832
2019-01-17 10:11:01 GMT 51.449348 -1.576233 12,675 99 323 -832
2019-01-17 10:10:58 GMT 51.450279 -1.585236 12,750 99 324 -896
2019-01-17 10:10:54 GMT 51.451355 -1.595170 13,175 99 325 -1280
2019-01-17 10:10:51 GMT 51.451630 -1.597991 12,825 99 325 -1024
2019-01-17 10:10:48 GMT 51.452408 -1.605563 12,900 99 325 -1152
2019-01-17 10:10:45 GMT 51.453461 -1.615584 12,925 99 325 -1280
2019-01-17 10:10:42 GMT 51.454144 -1.622162 13,325 99 324 -1344
2019-01-17 10:10:39 GMT 51.455727 -1.637802 13,150 99 324 -1216
2019-01-17 10:10:36 GMT 51.456161 -1.642530 13,175 98 324 -960
2019-01-17 10:10:33 GMT 51.456161 -1.642530 13,250 98 324 -960
2019-01-17 10:10:30 GMT 51.457073 -1.651535 13,250 98 324 -1024
2019-01-17 10:10:26 GMT 51.457993 -1.661534 13,400 98 327 -896
2019-01-17 10:10:22 GMT 51.458706 -1.669159 13,525 98 327 -896
2019-01-17 10:10:18 GMT 51.459541 -1.678238 13,475 98 327 -896
2019-01-17 10:10:15 GMT 51.460239 -1.685944 13,500 98 328 -960
2019-01-17 10:10:12 GMT 51.461124 -1.696091 13,575 98 329 -1152
2019-01-17 10:10:09 GMT 51.461838 -1.703772 13,650 99 330 -1536
2019-01-17 10:10:06 GMT 51.462204 -1.707632 13,750 99 330 -1472
2019-01-17 10:10:03 GMT 51.462708 -1.712952 13,750 99 330 -1408
2019-01-17 10:10:00 GMT 51.463497 -1.720657 13,850 99 331 -1024
2019-01-17 10:09:57 GMT 51.464401 -1.729382 13,900 99 331 -640
2019-01-17 10:09:54 GMT 51.465080 -1.736145 13,975 98 330 -256
2019-01-17 10:09:50 GMT 51.465965 -1.745300 14,000 98 329 0
2019-01-17 10:09:47 GMT 51.466919 -1.755511 14,000 98 329 0
2019-01-17 10:09:43 GMT 51.467735 -1.764145 14,000 98 329 0
2019-01-17 10:09:40 GMT 51.468292 -1.770477 14,000 98 329 64
2019-01-17 10:09:37 GMT 51.468807 -1.775742 14,000 98 328 0
2019-01-17 10:09:34 GMT 51.469574 -1.784388 14,000 98 328 0
2019-01-17 10:09:31 GMT 51.470261 -1.791588 14,000 98 328 0
2019-01-17 10:09:28 GMT 51.471088 -1.800766 14,000 98 329 0
2019-01-17 10:09:25 GMT 51.471634 -1.806509 14,000 98 329 0
2019-01-17 10:09:22 GMT 51.472439 -1.815186 14,000 98 329 0
2019-01-17 10:09:19 GMT 51.473099 -1.822469 13,975 98 329 0
2019-01-17 10:09:16 GMT 51.473694 -1.828690 13,975 98 330 -64
2019-01-17 10:09:13 GMT 51.474106 -1.833084 14,000 98 330 -64
2019-01-17 10:09:10 GMT 51.475929 -1.851959 14,000 98 330 -64
2019-01-17 10:09:06 GMT 51.475929 -1.851959 14,000 99 331 -64
2019-01-17 10:09:03 GMT 51.476807 -1.860624 14,000 99 331 -64
2019-01-17 10:09:00 GMT 51.478271 -1.875619 14,000 99 330 0
2019-01-17 10:08:57 GMT 51.478271 -1.875619 14,000 99 330 -64
2019-01-17 10:08:54 GMT 51.479000 -1.882858 14,000 99 329 -64
2019-01-17 10:08:51 GMT 51.479511 -1.887741 14,000 100 329 0
2019-01-17 10:08:48 GMT 51.480583 -1.897812 14,000 99 328 -64
2019-01-17 10:08:41 GMT 51.482254 -1.913254 14,000 99 328 -64
2019-01-17 10:08:38 GMT 51.483765 -1.927136 14,000 100 329 0
2019-01-17 10:08:35 GMT 51.483765 -1.927136 14,000 100 329 0
2019-01-17 10:08:32 GMT 51.484634 -1.934814 14,000 99 328 -128
2019-01-17 10:08:29 GMT 51.485657 -1.943893 14,000 99 328 -64
2019-01-17 10:08:25 GMT 51.486282 -1.949702 14,025 99 328 -192
2019-01-17 10:08:22 GMT 51.487152 -1.957793 14,025 99 328 -192
2019-01-17 10:08:19 GMT 51.487885 -1.964994 14,050 99 331 -960
2019-01-17 10:08:16 GMT 51.488590 -1.972198 14,050 99 329 -192
2019-01-17 10:08:13 GMT 51.489429 -1.980362 14,050 99 330 -320
2019-01-17 10:08:10 GMT 51.490265 -1.988080 14,075 99 331 -1216
2019-01-17 10:08:07 GMT 51.491013 -1.995392 14,075 99 332 -1344
2019-01-17 10:08:04 GMT 51.492416 -2.008420 14,275 99 332 -1344
2019-01-17 10:07:58 GMT 51.492966 -2.013764 14,275 99 332 -1280
2019-01-17 10:07:55 GMT 51.493927 -2.022969 14,350 99 332 -1344
2019-01-17 10:07:52 GMT 51.495155 -2.034683 14,450 99 332 -1408
2019-01-17 10:07:49 GMT 51.496719 -2.049173 14,550 99 332 -1408
2019-01-17 10:07:46 GMT 51.496719 -2.049173 14,575 99 332 -1344
2019-01-17 10:07:43 GMT 51.497154 -2.053604 14,625 99 332 -1280
2019-01-17 10:07:40 GMT 51.497955 -2.060827 14,800 99 342 -1408
2019-01-17 10:07:37 GMT 51.498554 -2.066193 14,750 99 332 -1024
2019-01-17 10:07:34 GMT 51.499283 -2.073001 14,775 99 333 -960
2019-01-17 10:07:31 GMT 51.500290 -2.082280 14,900 99 334 -1024
2019-01-17 10:07:28 GMT 51.501068 -2.089539 14,900 99 334 -1024
2019-01-17 10:07:24 GMT 51.502304 -2.101284 14,975 99 335 -1344
2019-01-17 10:07:21 GMT 51.502930 -2.107162 15,025 99 335 -1280
2019-01-17 10:07:18 GMT 51.503719 -2.115021 15,100 99 334 -1344
2019-01-17 10:07:14 GMT 51.504776 -2.125335 15,175 99 335 -1408
2019-01-17 10:07:11 GMT 51.505489 -2.132187 15,300 99 335 -1472
2019-01-17 10:07:08 GMT 51.506142 -2.138062 15,325 99 334 -1472
2019-01-17 10:07:04 GMT 51.507164 -2.148285 15,450 99 334 -1472
2019-01-17 10:07:01 GMT 51.507889 -2.155176 15,575 99 334 -1344
2019-01-17 10:06:58 GMT 51.508560 -2.161484 15,575 99 334 -1344
2019-01-17 10:06:55 GMT 51.509632 -2.171783 15,750 99 335 -1088
2019-01-17 10:06:52 GMT 51.510086 -2.176184 15,775 99 335 -1088
2019-01-17 10:06:49 GMT 51.510910 -2.183978 15,775 99 335 -1088
2019-01-17 10:06:46 GMT 51.511505 -2.189397 15,850 99 337 -1152
2019-01-17 10:06:43 GMT 51.512466 -2.198750 15,925 99 336 -1408
2019-01-17 10:06:40 GMT 51.513428 -2.207584 15,975 99 336 -1408
2019-01-17 10:06:37 GMT 51.514160 -2.214933 16,050 99 337 -1408
2019-01-17 10:06:34 GMT 51.514984 -2.222824 16,125 99 337 -1408
2019-01-17 10:06:31 GMT 51.515991 -2.232229 16,175 99 337 -1408
2019-01-17 10:06:28 GMT 51.516403 -2.236163 16,275 99 337 -1408
2019-01-17 10:06:24 GMT 51.517319 -2.244997 16,450 99 339 -896
2019-01-17 10:06:21 GMT 51.518188 -2.253385 16,475 99 338 -960
2019-01-17 10:06:18 GMT 51.519058 -2.261773 16,475 99 338 -1024
2019-01-17 10:06:15 GMT 51.519791 -2.269196 16,500 99 338 -960
2019-01-17 10:06:12 GMT 51.520798 -2.279143 16,650 99 341 -1024
2019-01-17 10:06:09 GMT 51.521255 -2.283597 16,675 99 341 -1216
2019-01-17 10:06:06 GMT 51.522015 -2.291031 16,675 99 341 -1024
2019-01-17 10:06:03 GMT 51.522583 -2.296514 16,700 99 342 -1344
2019-01-17 10:06:00 GMT 51.523315 -2.303492 16,825 99 342 -1344
2019-01-17 10:05:57 GMT 51.524437 -2.314529 16,875 99 342 -1472
2019-01-17 10:05:53 GMT 51.525181 -2.322006 17,050 99 342 -1472
2019-01-17 10:05:49 GMT 51.526440 -2.334518 17,075 99 342 -1472
2019-01-17 10:05:46 GMT 51.527023 -2.340014 17,150 99 342 -1472
2019-01-17 10:05:43 GMT 51.527836 -2.348022 17,200 99 342 -1280
2019-01-17 10:05:40 GMT 51.528625 -2.356033 17,325 99 343 -1024
2019-01-17 10:05:37 GMT 51.529404 -2.363545 17,350 99 343 -832
2019-01-17 10:05:34 GMT 51.530045 -2.370078 17,475 98 345 -448
2019-01-17 10:05:31 GMT 51.530777 -2.377649 17,550 98 346 -448
2019-01-17 10:05:28 GMT 51.531513 -2.385178 17,475 98 347 -512
2019-01-17 10:05:25 GMT 51.532490 -2.395859 17,550 99 349 -1536
2019-01-17 10:05:22 GMT 51.533142 -2.402496 17,525 98 349 -1152
2019-01-17 10:05:19 GMT 51.533798 -2.409198 17,550 99 348 -1664
2019-01-17 10:05:16 GMT 51.534676 -2.417908 17,700 99 348 -1664
2019-01-17 10:05:13 GMT 51.535515 -2.426071 17,750 99 348 -1472
2019-01-17 10:05:10 GMT 51.536076 -2.431641 17,800 99 348 -1408
2019-01-17 10:05:07 GMT 51.537048 -2.440821 17,875 99 347 -768
2019-01-17 10:05:04 GMT 51.537842 -2.448425 17,950 99 347 -512
2019-01-17 10:05:01 GMT 51.538559 -2.455593 17,975 99 347 -320
2019-01-17 10:04:58 GMT 51.539333 -2.463150 17,975 99 347 -64
2019-01-17 10:04:55 GMT 51.540298 -2.472369 17,975 99 347 -64
2019-01-17 10:04:52 GMT 51.540710 -2.476378 18,000 100 348 -64
2019-01-17 10:04:48 GMT 51.541847 -2.487106 18,000 99 347 -64
2019-01-17 10:04:45 GMT 51.542679 -2.495233 18,000 99 347 0
2019-01-17 10:04:41 GMT 51.543846 -2.506409 18,000 99 348 -64
2019-01-17 10:04:37 GMT 51.544922 -2.516611 18,000 99 348 0
2019-01-17 10:04:34 GMT 51.545700 -2.523663 18,000 100 348 -64
2019-01-17 10:04:31 GMT 51.546688 -2.532806 18,000 100 348 -64
2019-01-17 10:04:28 GMT 51.548038 -2.545013 18,000 100 347 -64
2019-01-17 10:04:25 GMT 51.549248 -2.555695 18,000 100 347 -64
2019-01-17 10:04:22 GMT 51.549248 -2.555695 18,000 100 347 0
2019-01-17 10:04:19 GMT 51.550049 -2.562784 18,000 100 347 0
2019-01-17 10:04:15 GMT 51.551296 -2.573395 18,000 100 348 -64
2019-01-17 10:04:12 GMT 51.552017 -2.579486 18,000 100 347 0
2019-01-17 10:04:09 GMT 51.553070 -2.588097 18,000 100 347 0
2019-01-17 10:04:06 GMT 51.554184 -2.597733 18,000 100 347 0
2019-01-17 10:04:02 GMT 51.555161 -2.605820 18,000 100 347 -64
2019-01-17 10:03:59 GMT 51.556046 -2.613373 18,000 100 347 -64
2019-01-17 10:03:56 GMT 51.556961 -2.620982 18,000 100 347 -64
2019-01-17 10:03:53 GMT 51.557785 -2.627514 18,000 100 347 0
2019-01-17 10:03:49 GMT 51.559021 -2.638129 18,000 100 354 -256
2019-01-17 10:03:46 GMT 51.559753 -2.644216 18,000 100 347 0
2019-01-17 10:03:43 GMT 51.560623 -2.651788 18,000 100 350 -64
2019-01-17 10:03:40 GMT 51.561630 -2.659879 18,000 100 350 -64
2019-01-17 10:03:37 GMT 51.562515 -2.667542 18,000 100 350 -128
2019-01-17 10:03:33 GMT 51.563461 -2.675765 18,025 100 364 -1728
2019-01-17 10:03:30 GMT 51.564610 -2.686005 18,025 100 353 -128
2019-01-17 10:03:27 GMT 51.565704 -2.695882 18,025 100 354 -256
2019-01-17 10:03:24 GMT 51.566437 -2.702562 18,050 100 356 -384
2019-01-17 10:03:18 GMT 51.568336 -2.719269 18,125 100 361 -1024
2019-01-17 10:03:15 GMT 51.568771 -2.722902 18,075 100 359 -832
2019-01-17 10:03:12 GMT 51.569504 -2.729212 18,275 100 362 -1280
2019-01-17 10:03:08 GMT 51.571079 -2.742920 18,200 100 362 -1280
2019-01-17 10:03:05 GMT 51.571873 -2.749786 18,425 100 364 -1216
2019-01-17 10:03:02 GMT 51.573074 -2.760315 18,350 100 364 -1216
2019-01-17 10:02:58 GMT 51.574081 -2.768852 18,425 100 364 -1216
2019-01-17 10:02:55 GMT 51.575226 -2.778873 18,525 100 365 -1344
2019-01-17 10:02:52 GMT 51.575958 -2.785257 18,550 100 365 -1344
2019-01-17 10:02:48 GMT 51.577133 -2.795410 18,700 100 365 -1472
2019-01-17 10:02:44 GMT 51.578388 -2.806549 18,900 100 364 -1856
2019-01-17 10:02:40 GMT 51.579693 -2.817688 18,825 100 364 -1792
2019-01-17 10:02:37 GMT 51.580719 -2.826159 19,075 101 364 -2240
2019-01-17 10:02:34 GMT 51.581741 -2.834091 19,175 102 359 -3328
2019-01-17 10:02:31 GMT 51.583008 -2.843529 19,225 103 358 -3392
2019-01-17 10:02:28 GMT 51.583649 -2.848206 20,650 106 353 -896
2019-01-17 10:02:25 GMT 51.584930 -2.856965 19,625 103 355 -3520
2019-01-17 10:02:22 GMT 51.586212 -2.865143 19,800 104 349 -3264
2019-01-17 10:02:19 GMT 51.587494 -2.873222 19,925 105 347 -2752
2019-01-17 10:02:16 GMT 51.589050 -2.882204 20,500 106 356 -1152
2019-01-17 10:02:13 GMT 51.589890 -2.887115 20,375 106 350 -704
2019-01-17 10:02:10 GMT 51.591099 -2.894058 20,300 106 346 -1600
2019-01-17 10:02:07 GMT 51.592819 -2.903442 20,400 106 354 -1024
2019-01-17 10:02:01 GMT 51.594681 -2.913827 20,500 106 348 -832
2019-01-17 10:01:58 GMT 51.596546 -2.923737 20,525 106 350 -704
2019-01-17 10:01:55 GMT 51.598389 -2.933721 20,575 106 351 -768
2019-01-17 10:01:52 GMT 51.600861 -2.947231 20,750 106 353 -960
2019-01-17 10:01:49 GMT 51.600861 -2.947231 20,650 106 353 -960
2019-01-17 10:01:46 GMT 51.602085 -2.953720 20,675 106 354 -1024
2019-01-17 10:01:43 GMT 51.605072 -2.969872 20,875 106 357 -1088
2019-01-17 10:01:40 GMT 51.605072 -2.969872 20,800 106 355 -1216
2019-01-17 10:01:37 GMT 51.606274 -2.976456 20,925 106 356 -1216
2019-01-17 10:01:34 GMT 51.607956 -2.985609 21,050 106 357 -1088
2019-01-17 10:01:31 GMT 51.611160 -3.003425 21,050 106 359 -896
2019-01-17 10:01:27 GMT 51.611160 -3.003425 21,050 105 359 -768
2019-01-17 10:01:24 GMT 51.614273 -3.020869 21,125 105 362 -832
2019-01-17 10:01:21 GMT 51.614273 -3.020869 21,125 105 364 -1152
2019-01-17 10:01:18 GMT 51.615444 -3.027649 21,175 105 363 -832
2019-01-17 10:01:15 GMT 51.616287 -3.032301 21,200 105 363 -896
2019-01-17 10:01:12 GMT 51.617386 -3.038536 21,250 105 364 -1024
2019-01-17 10:01:09 GMT 51.620567 -3.056717 21,525 106 365 -1792
2019-01-17 10:01:06 GMT 51.622520 -3.067703 21,525 106 365 -1792
2019-01-17 10:01:02 GMT 51.622520 -3.067703 24,325 106 374 -1280
2019-01-17 10:00:59 GMT 51.625362 -3.083878 21,575 106 365 -1792
2019-01-17 10:00:56 GMT 51.625362 -3.083878 21,625 106 365 -1728
2019-01-17 10:00:53 GMT 51.626713 -3.091125 21,775 106 365 -1600
2019-01-17 10:00:50 GMT 51.629227 -3.105164 21,850 106 368 -1152
2019-01-17 10:00:47 GMT 51.629227 -3.105164 22,100 106 368 -1152
2019-01-17 10:00:44 GMT 51.632492 -3.122938 21,925 106 368 -1152
2019-01-17 10:00:41 GMT 51.632492 -3.122938 22,025 106 368 -1216
2019-01-17 10:00:38 GMT 51.634022 -3.131332 22,100 106 368 -1152
2019-01-17 10:00:35 GMT 51.635651 -3.140234 22,150 106 372 -1152
2019-01-17 10:00:32 GMT 51.636440 -3.144455 22,225 106 371 -1152
2019-01-17 10:00:28 GMT 51.638626 -3.156052 22,275 106 373 -1152
2019-01-17 10:00:25 GMT 51.639793 -3.162460 22,300 106 373 -1216
2019-01-17 10:00:22 GMT 51.641373 -3.170892 22,425 106 374 -1280
2019-01-17 10:00:19 GMT 51.643936 -3.184814 22,475 106 375 -1280
2019-01-17 10:00:15 GMT 51.644913 -3.190155 22,500 106 375 -1216
2019-01-17 10:00:11 GMT 51.646774 -3.200302 22,575 106 376 -1216
2019-01-17 10:00:08 GMT 51.649055 -3.212585 22,750 106 378 -1280
2019-01-17 10:00:04 GMT 51.650036 -3.218002 22,725 106 377 -1280
2019-01-17 10:00:01 GMT 51.651382 -3.225479 22,850 106 378 -1408
2019-01-17 09:59:58 GMT 51.653183 -3.235251 22,850 106 378 -1408
2019-01-17 09:59:55 GMT 51.654556 -3.242748 22,950 106 379 -1408
2019-01-17 09:59:52 GMT 51.656662 -3.254106 23,075 106 379 -1408
2019-01-17 09:59:49 GMT 51.657761 -3.260044 23,125 106 381 -1408
2019-01-17 09:59:46 GMT 51.660278 -3.273555 23,175 107 382 -1408
2019-01-17 09:59:43 GMT 51.660835 -3.276291 23,200 107 382 -1408
2019-01-17 09:59:40 GMT 51.662430 -3.284467 23,375 108 386 -1280
2019-01-17 09:59:36 GMT 51.664444 -3.294191 23,650 110 393 -1088
2019-01-17 09:59:33 GMT 51.666279 -3.302917 23,550 109 390 -1152
2019-01-17 09:59:30 GMT 51.668095 -3.311081 23,425 109 405 -960
2019-01-17 09:59:27 GMT 51.669983 -3.319282 23,500 110 394 -1024
2019-01-17 09:59:23 GMT 51.673077 -3.332443 23,600 110 396 -1152
2019-01-17 09:59:20 GMT 51.675156 -3.341254 23,625 110 398 -1280
2019-01-17 09:59:17 GMT 51.676987 -3.348974 23,750 110 398 -1280
2019-01-17 09:59:14 GMT 51.680386 -3.363342 23,800 110 398 -1280
2019-01-17 09:59:11 GMT 51.680386 -3.363342 23,825 110 398 -1344
2019-01-17 09:59:08 GMT 51.682343 -3.371689 23,925 110 399 -1472
2019-01-17 09:59:05 GMT 51.684437 -3.380585 24,000 110 399 -1472
2019-01-17 09:59:02 GMT 51.688614 -3.398339 24,100 110 400 -1472
2019-01-17 09:58:59 GMT 51.691086 -3.408954 24,200 110 400 -1472
2019-01-17 09:58:56 GMT 51.691086 -3.408954 24,300 110 401 -1280
2019-01-17 09:58:52 GMT 51.692490 -3.415070 24,325 110 401 -1216
2019-01-17 09:58:49 GMT 51.694584 -3.423996 24,475 109 407 -896
2019-01-17 09:58:46 GMT 51.697403 -3.436345 24,450 110 401 -1152
2019-01-17 09:58:43 GMT 51.698589 -3.441315 24,450 110 401 -1152
2019-01-17 09:58:40 GMT 51.700607 -3.450301 24,525 110 402 -1152
2019-01-17 09:58:37 GMT 51.703079 -3.460990 24,600 110 403 -1088
2019-01-17 09:58:33 GMT 51.705383 -3.471146 24,725 109 405 -960
2019-01-17 09:58:30 GMT 51.708572 -3.485264 24,775 109 407 -896
2019-01-17 09:58:27 GMT 51.710861 -3.495434 24,775 109 406 -896
2019-01-17 09:58:24 GMT 51.710861 -3.495434 24,850 109 407 -896
2019-01-17 09:58:21 GMT 51.713516 -3.507385 24,875 109 408 -896
2019-01-17 09:58:18 GMT 51.714787 -3.513107 24,900 109 408 -896
2019-01-17 09:58:14 GMT 51.717487 -3.525162 24,950 109 410 -1088
2019-01-17 09:58:11 GMT 51.718746 -3.530960 25,000 109 412 -1536
2019-01-17 09:58:07 GMT 51.723083 -3.550514 25,150 109 412 -1600
2019-01-17 09:58:04 GMT 51.723816 -3.554003 25,150 109 412 -1600
2019-01-17 09:58:01 GMT 51.725098 -3.559793 25,350 109 412 -1920
2019-01-17 09:57:58 GMT 51.726746 -3.567290 25,325 109 412 -1792
2019-01-17 09:57:55 GMT 51.729172 -3.578339 25,600 109 411 -1984
2019-01-17 09:57:52 GMT 51.731777 -3.590469 25,550 109 411 -1984
2019-01-17 09:57:49 GMT 51.733292 -3.597354 25,800 109 409 -1984
2019-01-17 09:57:44 GMT 51.736572 -3.612366 25,850 109 409 -1984
2019-01-17 09:57:41 GMT 51.738419 -3.621034 25,975 109 409 -1856
2019-01-17 09:57:38 GMT 51.739929 -3.627938 26,000 109 409 -1728
2019-01-17 09:57:34 GMT 51.742161 -3.638306 26,250 109 411 -1152
2019-01-17 09:57:31 GMT 51.745049 -3.651505 26,200 109 410 -1344
2019-01-17 09:57:28 GMT 51.746933 -3.660229 26,275 109 413 -1024
2019-01-17 09:57:23 GMT 51.749935 -3.674088 26,375 109 413 -1088
2019-01-17 09:57:20 GMT 51.752075 -3.684006 26,425 109 415 -960
2019-01-17 09:57:17 GMT 51.753433 -3.690367 29,225 107 436 -1408
2019-01-17 09:57:14 GMT 51.754944 -3.697419 26,500 109 417 -768
2019-01-17 09:57:10 GMT 51.757141 -3.707366 26,550 109 418 -704
2019-01-17 09:57:07 GMT 51.758926 -3.715606 26,575 109 420 -704
2019-01-17 09:57:04 GMT 51.761856 -3.729190 26,675 109 424 -1088
2019-01-17 09:57:01 GMT 51.763824 -3.738098 26,650 109 424 -960
2019-01-17 09:56:58 GMT 51.765884 -3.747674 26,725 109 425 -1216
2019-01-17 09:56:55 GMT 51.767303 -3.754206 26,725 108 425 -1920
2019-01-17 09:56:50 GMT 51.770000 -3.766785 26,900 109 426 -1600
2019-01-17 09:56:47 GMT 51.771908 -3.775787 27,000 109 426 -1600
2019-01-17 09:56:44 GMT 51.774078 -3.785978 27,450 108 425 -1856
2019-01-17 09:56:41 GMT 51.776505 -3.797409 27,225 108 426 -1728
2019-01-17 09:56:37 GMT 51.779308 -3.810577 28,175 107 426 -1024
2019-01-17 09:56:34 GMT 51.780716 -3.817229 28,975 108 426 -1856
2019-01-17 09:56:30 GMT 51.783779 -3.831635 27,400 108 425 -1856
2019-01-17 09:56:27 GMT 51.787766 -3.850856 27,900 108 425 -1920
2019-01-17 09:56:20 GMT 51.789780 -3.860432 27,750 108 424 -1984
2019-01-17 09:56:17 GMT 51.791153 -3.867039 27,875 108 424 -1920
2019-01-17 09:56:14 GMT 51.793369 -3.877869 28,250 107 424 -1280
2019-01-17 09:56:10 GMT 51.797466 -3.897629 28,125 107 426 -1024
2019-01-17 09:56:04 GMT 51.799419 -3.907242 28,400 108 425 -1344
2019-01-17 09:55:59 GMT 51.802094 -3.920412 28,425 107 424 -1280
2019-01-17 09:55:56 GMT 51.804291 -3.931250 28,450 107 424 -1280
2019-01-17 09:55:53 GMT 51.805984 -3.939667 28,600 107 430 -704
2019-01-17 09:55:50 GMT 51.807705 -3.948135 28,550 107 426 -960
2019-01-17 09:55:47 GMT 51.809372 -3.956637 28,575 107 426 -896
2019-01-17 09:55:43 GMT 51.812687 -3.973618 28,675 107 428 -768
2019-01-17 09:55:40 GMT 51.813538 -3.977867 28,725 107 429 -704
2019-01-17 09:55:37 GMT 51.815060 -3.985825 28,775 107 433 -1152
2019-01-17 09:55:34 GMT 51.817528 -3.998642 28,800 107 436 -1664
2019-01-17 09:55:30 GMT 51.820042 -4.011612 28,850 107 434 -1216
2019-01-17 09:55:27 GMT 51.821999 -4.021454 28,875 107 434 -1408
2019-01-17 09:55:22 GMT 51.824707 -4.035026 29,050 107 435 -256
2019-01-17 09:55:19 GMT 51.826931 -4.046173 29,125 108 436 -1536
2019-01-17 09:55:16 GMT 51.828049 -4.051728 29,500 107 436 -1088
2019-01-17 09:55:13 GMT 51.830521 -4.064125 29,300 107 435 -704
2019-01-17 09:55:10 GMT 51.832005 -4.071579 29,375 107 435 -448
2019-01-17 09:55:06 GMT 51.834915 -4.086394 29,375 107 436 -128
2019-01-17 09:55:03 GMT 51.835777 -4.090729 29,375 107 437 0
2019-01-17 09:54:59 GMT 51.839035 -4.107513 29,375 107 437 0
2019-01-17 09:54:56 GMT 51.840618 -4.115601 29,375 107 438 -64
2019-01-17 09:54:53 GMT 51.842194 -4.123659 29,375 107 438 -128
2019-01-17 09:54:50 GMT 51.843971 -4.132996 29,375 108 439 -320
2019-01-17 09:54:47 GMT 51.845600 -4.141159 29,375 107 440 -256
2019-01-17 09:54:44 GMT 51.849609 -4.161072 29,400 109 443 -448
2019-01-17 09:54:41 GMT 51.849609 -4.161072 29,400 113 450 -832
2019-01-17 09:54:36 GMT 51.852863 -4.176102 29,400 111 446 -640
2019-01-17 09:54:33 GMT 51.856247 -4.189725 29,425 114 451 -896
2019-01-17 09:54:30 GMT 51.858074 -4.196472 29,450 118 457 -1024
2019-01-17 09:54:27 GMT 51.860138 -4.203161 29,425 118 457 -1024
2019-01-17 09:54:24 GMT 51.862976 -4.211550 29,475 124 466 -1024
2019-01-17 09:54:21 GMT 51.866821 -4.221497 29,475 130 473 -960
2019-01-17 09:54:18 GMT 51.870529 -4.230033 29,500 130 473 -960
2019-01-17 09:54:15 GMT 51.875931 -4.241020 29,500 130 473 -960
2019-01-17 09:54:12 GMT 51.880653 -4.249420 29,525 137 480 -896
2019-01-17 09:54:09 GMT 51.884995 -4.256534 29,550 138 481 -896
2019-01-17 09:54:06 GMT 51.889217 -4.262848 29,575 140 484 -832
2019-01-17 09:54:02 GMT 51.894333 -4.269791 29,650 155 493 -576
2019-01-17 09:53:59 GMT 51.906025 -4.283255 29,625 148 489 -768
2019-01-17 09:53:56 GMT 51.906025 -4.283255 29,625 149 489 -704
2019-01-17 09:53:53 GMT 51.912964 -4.290009 29,650 152 491 -640
2019-01-17 09:53:50 GMT 51.919384 -4.295419 29,650 155 493 -576
2019-01-17 09:53:47 GMT 51.924728 -4.299469 29,675 160 494 -512
2019-01-17 09:53:44 GMT 51.932281 -4.304522 29,675 162 495 -448
2019-01-17 09:53:41 GMT 51.939171 -4.308367 29,675 163 494 -384
2019-01-17 09:53:38 GMT 51.943546 -4.310486 29,700 166 495 -384
2019-01-17 09:53:35 GMT 51.951923 -4.313939 29,725 169 495 -320
2019-01-17 09:53:31 GMT 51.960445 -4.316607 29,725 170 495 -320
2019-01-17 09:53:27 GMT 51.967209 -4.318085 29,750 175 493 -256
2019-01-17 09:53:24 GMT 51.976273 -4.319196 29,750 190 486 -192
2019-01-17 09:53:21 GMT 51.983551 -4.319458 29,750 184 489 -192
2019-01-17 09:53:18 GMT 51.991699 -4.319077 29,800 189 486 -192
2019-01-17 09:53:15 GMT 51.995316 -4.318542 29,800 187 488 -192
2019-01-17 09:53:12 GMT 52.002014 -4.317313 29,825 191 484 -128
2019-01-17 09:53:09 GMT 52.010880 -4.314880 29,875 193 483 -128
2019-01-17 09:53:06 GMT 52.015236 -4.313311 29,850 197 480 -64
2019-01-17 09:53:03 GMT 52.021729 -4.310608 29,875 208 467 128
2019-01-17 09:53:00 GMT 52.028458 -4.307190 29,900 202 474 64
2019-01-17 09:52:57 GMT 52.037521 -4.301605 29,900 206 470 64
2019-01-17 09:52:54 GMT 52.042282 -4.298096 29,925 209 467 128
2019-01-17 09:52:51 GMT 52.050385 -4.291338 29,950 223 447 192
2019-01-17 09:52:45 GMT 52.057709 -4.284210 29,950 215 459 192
2019-01-17 09:52:42 GMT 52.065079 -4.275970 30,000 219 453 192
2019-01-17 09:52:39 GMT 52.068027 -4.272191 30,125 250 404 448
2019-01-17 09:52:36 GMT 52.074078 -4.263872 30,000 224 446 256
2019-01-17 09:52:33 GMT 52.077393 -4.258804 30,025 229 439 256
2019-01-17 09:52:30 GMT 52.082291 -4.250641 30,050 230 436 256
2019-01-17 09:52:27 GMT 52.084946 -4.245758 30,100 238 424 192
2019-01-17 09:52:24 GMT 52.090622 -4.233932 30,075 237 426 192
2019-01-17 09:52:20 GMT 52.093781 -4.226456 30,100 239 422 192
2019-01-17 09:52:16 GMT 52.097820 -4.215533 30,150 247 409 192
2019-01-17 09:52:12 GMT 52.103668 -4.195328 30,200 256 396 384
2019-01-17 09:52:09 GMT 52.103668 -4.195328 30,200 251 402 384
2019-01-17 09:52:06 GMT 52.105408 -4.187927 30,225 255 397 384
2019-01-17 09:52:03 GMT 52.107643 -4.175903 30,325 298 346 320
2019-01-17 09:52:00 GMT 52.108292 -4.171829 30,250 260 389 384
2019-01-17 09:51:57 GMT 52.109528 -4.160843 30,250 266 381 384
2019-01-17 09:51:54 GMT 52.110306 -4.151077 30,275 268 378 384
2019-01-17 09:51:50 GMT 52.110672 -4.139175 30,275 272 373 384
2019-01-17 09:51:47 GMT 52.110535 -4.129028 30,300 277 367 384
2019-01-17 09:51:44 GMT 52.110249 -4.123561 30,325 279 364 448
2019-01-17 09:51:41 GMT 52.109299 -4.113235 30,325 281 361 448
2019-01-17 09:51:38 GMT 52.108620 -4.107396 30,325 286 356 640
2019-01-17 09:51:35 GMT 52.107178 -4.098528 30,325 290 353 640
2019-01-17 09:51:32 GMT 52.106049 -4.093018 30,325 292 351 512
2019-01-17 09:51:28 GMT 52.103485 -4.082794 30,300 299 357 1792
2019-01-17 09:51:25 GMT 52.100380 -4.072553 30,350 299 346 704
2019-01-17 09:51:21 GMT 52.098843 -4.067923 30,350 299 347 1088
2019-01-17 09:51:18 GMT 52.096237 -4.060155 29,000 299 356 1728
2019-01-17 09:51:15 GMT 52.094097 -4.053798 29,650 299 358 1856
2019-01-17 09:51:12 GMT 52.088600 -4.037554 29,450 299 363 1792
2019-01-17 09:51:09 GMT 52.088600 -4.037554 30,075 299 357 1792
2019-01-17 09:51:06 GMT 52.086834 -4.032375 29,925 299 362 1792
2019-01-17 09:51:03 GMT 52.082657 -4.020081 29,775 299 366 1792
2019-01-17 09:51:00 GMT 52.081375 -4.016190 29,750 299 367 1856
2019-01-17 09:50:56 GMT 52.078083 -4.006635 29,550 299 374 1856
2019-01-17 09:50:52 GMT 52.074783 -3.996887 29,500 299 374 1856
2019-01-17 09:50:49 GMT 52.071899 -3.988495 29,400 299 379 1664
2019-01-17 09:50:46 GMT 52.069889 -3.982544 29,275 299 381 1536
2019-01-17 09:50:40 GMT 52.065327 -3.969046 29,175 298 386 896
2019-01-17 09:50:37 GMT 52.061462 -3.957275 29,100 298 389 768
2019-01-17 09:50:34 GMT 52.059460 -3.951076 29,050 297 392 384
2019-01-17 09:50:28 GMT 52.054871 -3.936462 29,000 297 394 64
2019-01-17 09:50:25 GMT 52.052383 -3.928554 29,000 297 395 0
2019-01-17 09:50:21 GMT 52.049789 -3.920059 29,000 299 399 448
2019-01-17 09:50:18 GMT 52.046474 -3.909485 28,925 299 398 448
2019-01-17 09:50:15 GMT 52.044842 -3.904149 28,975 298 398 320
2019-01-17 09:50:12 GMT 52.041412 -3.893585 28,975 299 398 448
2019-01-17 09:50:09 GMT 52.038605 -3.885158 28,950 299 399 448
2019-01-17 09:50:06 GMT 52.036011 -3.877258 28,950 299 399 448
2019-01-17 09:50:03 GMT 52.034786 -3.873622 28,950 299 400 448
2019-01-17 09:50:00 GMT 52.032322 -3.866246 28,925 299 400 512
2019-01-17 09:49:57 GMT 52.029144 -3.856735 28,900 299 399 512
2019-01-17 09:49:54 GMT 52.025482 -3.845749 28,875 299 399 512
2019-01-17 09:49:51 GMT 52.023056 -3.838348 28,750 299 399 576
2019-01-17 09:49:48 GMT 52.020264 -3.829912 28,775 299 399 512
2019-01-17 09:49:44 GMT 52.016956 -3.819868 28,775 299 399 576
2019-01-17 09:49:41 GMT 52.015236 -3.814610 28,750 299 399 512
2019-01-17 09:49:38 GMT 52.012619 -3.806686 28,725 299 399 512
2019-01-17 09:49:35 GMT 52.006851 -3.789368 28,675 299 398 512
2019-01-17 09:49:32 GMT 52.006851 -3.789368 28,625 299 397 448
2019-01-17 09:49:29 GMT 52.004242 -3.781509 28,650 299 398 448
2019-01-17 09:49:26 GMT 52.000713 -3.771057 28,650 299 397 448
2019-01-17 09:49:23 GMT 51.999115 -3.766327 28,625 299 397 448
2019-01-17 09:49:20 GMT 51.994995 -3.754349 28,575 300 396 512
2019-01-17 09:49:17 GMT 51.993210 -3.749237 28,550 300 395 512
2019-01-17 09:49:14 GMT 51.991959 -3.745553 28,475 300 395 448
2019-01-17 09:49:11 GMT 51.988514 -3.735822 28,525 301 395 448
2019-01-17 09:49:08 GMT 51.985580 -3.727661 28,500 301 395 448
2019-01-17 09:49:05 GMT 51.982635 -3.719559 28,475 301 394 320
2019-01-17 09:49:02 GMT 51.979298 -3.710397 28,475 300 394 192
2019-01-17 09:48:59 GMT 51.977112 -3.704276 28,450 299 395 -64
2019-01-17 09:48:56 GMT 51.974457 -3.696507 28,425 297 396 -192
2019-01-17 09:48:53 GMT 51.971970 -3.688583 28,325 282 405 512
2019-01-17 09:48:50 GMT 51.970638 -3.683637 28,375 282 406 384
2019-01-17 09:48:47 GMT 51.968079 -3.673706 28,400 290 403 -384
2019-01-17 09:48:44 GMT 51.966217 -3.665196 28,375 287 407 -448
2019-01-17 09:48:41 GMT 51.964462 -3.655853 28,375 283 410 -256
2019-01-17 09:48:38 GMT 51.962540 -3.643341 28,350 283 411 -192
2019-01-17 09:48:35 GMT 51.961655 -3.636789 28,325 282 411 256
2019-01-17 09:48:31 GMT 51.960251 -3.625946 28,325 282 410 128
2019-01-17 09:48:28 GMT 51.958878 -3.615112 28,325 282 410 192
2019-01-17 09:48:25 GMT 51.958023 -3.608538 28,325 282 410 192
2019-01-17 09:48:22 GMT 51.956860 -3.599513 28,300 282 409 256
2019-01-17 09:48:19 GMT 51.955170 -3.586273 28,300 282 409 256
2019-01-17 09:48:16 GMT 51.954346 -3.579738 28,300 282 408 256
2019-01-17 09:48:13 GMT 51.953293 -3.571320 28,275 282 407 256
2019-01-17 09:48:10 GMT 51.952297 -3.563572 28,275 282 407 256
2019-01-17 09:48:07 GMT 51.950668 -3.551095 28,250 282 407 384
2019-01-17 09:48:04 GMT 51.949631 -3.542709 28,125 282 404 512
2019-01-17 09:48:01 GMT 51.948624 -3.535004 28,175 282 405 512
2019-01-17 09:47:57 GMT 51.946526 -3.518372 28,175 282 405 512
2019-01-17 09:47:54 GMT 51.945740 -3.512421 28,150 282 405 512
2019-01-17 09:47:51 GMT 51.945007 -3.506470 28,150 282 405 512
2019-01-17 09:47:48 GMT 51.942261 -3.485107 28,100 282 405 512
2019-01-17 09:47:45 GMT 51.942261 -3.485107 28,100 282 404 512
2019-01-17 09:47:42 GMT 51.941589 -3.479762 28,050 282 404 512
2019-01-17 09:47:39 GMT 51.940380 -3.470346 28,050 282 404 576
2019-01-17 09:47:35 GMT 51.938416 -3.454971 28,000 282 404 576
2019-01-17 09:47:32 GMT 51.937401 -3.447274 28,000 282 404 576
2019-01-17 09:47:29 GMT 51.936813 -3.442535 27,900 282 403 640
2019-01-17 09:47:26 GMT 51.935165 -3.429539 27,925 282 403 704
2019-01-17 09:47:23 GMT 51.934158 -3.421860 27,900 282 404 896
2019-01-17 09:47:20 GMT 51.932934 -3.412432 27,475 282 403 768
2019-01-17 09:47:17 GMT 51.932186 -3.406546 27,825 282 404 832
2019-01-17 09:47:14 GMT 51.931046 -3.397675 27,775 282 404 832
2019-01-17 09:47:11 GMT 51.929443 -3.385239 27,725 282 404 832
2019-01-17 09:47:07 GMT 51.928253 -3.375778 27,675 282 405 896
2019-01-17 09:47:03 GMT 51.926331 -3.360977 27,600 282 405 896
2019-01-17 09:46:59 GMT 51.925186 -3.352051 27,575 282 405 896
2019-01-17 09:46:56 GMT 51.923859 -3.341980 27,425 282 405 832
2019-01-17 09:46:53 GMT 51.922550 -3.331918 27,350 282 405 832
2019-01-17 09:46:50 GMT 51.921944 -3.327209 27,375 282 405 832
2019-01-17 09:46:47 GMT 51.920242 -3.314133 27,400 282 405 768
2019-01-17 09:46:44 GMT 51.919510 -3.308182 27,350 282 405 704
2019-01-17 09:46:41 GMT 51.918182 -3.298111 27,250 282 405 640
2019-01-17 09:46:38 GMT 51.916965 -3.288679 27,250 282 405 640
2019-01-17 09:46:32 GMT 51.913559 -3.262558 27,200 282 404 576
2019-01-17 09:46:29 GMT 51.913559 -3.262558 27,175 282 403 640
2019-01-17 09:46:23 GMT 51.911518 -3.246617 27,125 282 404 640
2019-01-17 09:46:20 GMT 51.910126 -3.236008 27,100 282 403 640
2019-01-17 09:46:17 GMT 51.909119 -3.228302 26,100 282 399 1024
2019-01-17 09:46:12 GMT 51.906956 -3.211853 26,975 282 402 768
2019-01-17 09:46:09 GMT 51.905731 -3.202438 26,625 282 401 768
2019-01-17 09:46:06 GMT 51.904816 -3.195343 26,925 282 402 704
2019-01-17 09:46:03 GMT 51.902664 -3.178864 26,600 282 400 768
2019-01-17 09:46:00 GMT 51.902664 -3.178864 26,850 282 401 768
2019-01-17 09:45:57 GMT 51.901199 -3.167725 26,825 282 401 768
2019-01-17 09:45:54 GMT 51.900158 -3.159511 26,800 282 401 768
2019-01-17 09:45:51 GMT 51.899002 -3.150711 26,750 282 401 768
2019-01-17 09:45:48 GMT 51.897457 -3.138951 26,600 282 401 768
2019-01-17 09:45:45 GMT 51.896759 -3.133698 26,700 282 401 768
2019-01-17 09:45:42 GMT 51.895550 -3.124276 26,675 282 400 768
2019-01-17 09:45:39 GMT 51.894562 -3.116684 26,625 282 400 768
2019-01-17 09:45:35 GMT 51.891541 -3.093839 25,525 282 400 768
2019-01-17 09:45:32 GMT 51.891541 -3.093839 26,525 282 400 832
2019-01-17 09:45:29 GMT 51.890335 -3.084488 26,475 282 400 832
2019-01-17 09:45:26 GMT 51.889114 -3.075133 26,425 282 400 832
2019-01-17 09:45:22 GMT 51.887741 -3.064666 26,375 282 399 960
2019-01-17 09:45:19 GMT 51.886520 -3.055267 26,350 282 399 960
2019-01-17 09:45:16 GMT 51.885448 -3.047104 26,300 282 399 1024
2019-01-17 09:45:13 GMT 51.884659 -3.041306 26,275 282 399 1024
2019-01-17 09:45:10 GMT 51.883163 -3.029628 26,175 282 399 1024
2019-01-17 09:45:07 GMT 51.881836 -3.019681 26,025 282 399 960
2019-01-17 09:45:04 GMT 51.880783 -3.011516 26,100 282 399 1024
2019-01-17 09:45:01 GMT 51.879639 -3.002756 26,050 282 399 960
2019-01-17 09:44:58 GMT 51.878540 -2.994591 25,975 283 399 960
2019-01-17 09:44:55 GMT 51.877300 -2.985229 25,850 283 399 960
2019-01-17 09:44:52 GMT 51.876068 -2.975885 25,850 283 399 960
2019-01-17 09:44:49 GMT 51.875439 -2.971268 25,875 283 399 960
2019-01-17 09:44:46 GMT 51.874462 -2.963638 25,825 283 399 960
2019-01-17 09:44:43 GMT 51.872726 -2.950794 25,750 283 399 960
2019-01-17 09:44:39 GMT 51.871307 -2.940327 25,700 283 399 960
2019-01-17 09:44:36 GMT 51.870087 -2.930984 25,575 283 398 896
2019-01-17 09:44:33 GMT 51.868835 -2.921695 25,525 283 398 896
2019-01-17 09:44:30 GMT 51.867805 -2.914124 25,575 283 398 896
2019-01-17 09:44:27 GMT 51.866821 -2.906552 25,525 283 398 960
2019-01-17 09:44:23 GMT 51.865540 -2.897199 25,425 283 398 960
2019-01-17 09:44:20 GMT 51.863987 -2.885590 25,400 283 398 960
2019-01-17 09:44:17 GMT 51.862610 -2.875152 25,350 283 398 1024
2019-01-17 09:44:14 GMT 51.861420 -2.866392 25,150 283 398 1024
2019-01-17 09:44:10 GMT 51.859798 -2.854156 25,000 283 399 1088
2019-01-17 09:44:06 GMT 51.858536 -2.844865 25,175 283 399 1088
2019-01-17 09:44:03 GMT 51.857189 -2.835007 25,100 283 399 1088
2019-01-17 09:44:00 GMT 51.855881 -2.825045 25,025 283 399 1152
2019-01-17 09:43:54 GMT 51.853683 -2.808788 24,925 283 399 1088
2019-01-17 09:43:51 GMT 51.852489 -2.800064 24,900 283 399 1088
2019-01-17 09:43:48 GMT 51.849976 -2.781448 24,825 283 398 896
2019-01-17 09:43:42 GMT 51.848671 -2.772217 24,725 283 398 960
2019-01-17 09:43:39 GMT 51.847961 -2.766996 24,675 283 398 960
2019-01-17 09:43:36 GMT 51.847183 -2.761206 24,675 283 398 960
2019-01-17 09:43:33 GMT 51.845787 -2.750778 24,500 283 397 960
2019-01-17 09:43:30 GMT 51.844025 -2.738045 24,550 283 397 960
2019-01-17 09:43:27 GMT 51.842926 -2.729954 24,525 283 397 960
2019-01-17 09:43:24 GMT 51.841919 -2.722382 24,325 283 396 960
2019-01-17 09:43:21 GMT 51.840958 -2.715479 24,350 283 396 960
2019-01-17 09:43:18 GMT 51.839409 -2.703934 24,375 283 396 1024
2019-01-17 09:43:15 GMT 51.838615 -2.698135 24,250 283 396 1024
2019-01-17 09:43:12 GMT 51.837173 -2.687759 24,175 282 396 1088
2019-01-17 09:43:09 GMT 51.836197 -2.680283 24,200 283 396 1088
2019-01-17 09:43:06 GMT 51.834915 -2.671014 24,175 283 396 1088
2019-01-17 09:43:03 GMT 51.833637 -2.661209 24,100 283 396 1088
2019-01-17 09:42:57 GMT 51.831306 -2.643814 23,925 282 396 1024
2019-01-17 09:42:54 GMT 51.830200 -2.635160 23,950 282 396 1024
2019-01-17 09:42:49 GMT 51.828327 -2.620697 23,850 282 396 1088
2019-01-17 09:42:46 GMT 51.827213 -2.612000 23,775 282 395 1152
2019-01-17 09:42:42 GMT 51.825943 -2.602201 23,650 285 392 1344
2019-01-17 09:42:39 GMT 51.824558 -2.591782 23,650 284 392 1344
2019-01-17 09:42:33 GMT 51.822006 -2.574735 23,500 286 390 1408
2019-01-17 09:42:30 GMT 51.820740 -2.566757 23,475 286 390 1408
2019-01-17 09:42:26 GMT 51.819122 -2.557216 23,400 287 388 1472
2019-01-17 09:42:23 GMT 51.817749 -2.549422 23,225 290 385 1536
2019-01-17 09:42:20 GMT 51.815781 -2.538955 23,225 290 385 1536
2019-01-17 09:42:16 GMT 51.813572 -2.528000 23,225 289 385 1536
2019-01-17 09:42:13 GMT 51.811943 -2.520370 23,100 290 384 1536
2019-01-17 09:42:10 GMT 51.809662 -2.510147 22,975 291 384 1408
2019-01-17 09:42:07 GMT 51.807800 -2.502060 22,975 291 383 1280
2019-01-17 09:42:04 GMT 51.806076 -2.494583 22,850 291 383 1280
2019-01-17 09:42:01 GMT 51.804474 -2.487661 22,850 291 383 1280
2019-01-17 09:41:58 GMT 51.803101 -2.481722 22,825 291 383 1280
2019-01-17 09:41:55 GMT 51.798347 -2.461395 22,700 291 383 1280
2019-01-17 09:41:52 GMT 51.798347 -2.461395 22,625 291 383 1280
2019-01-17 09:41:48 GMT 51.796646 -2.453885 22,575 291 383 1280
2019-01-17 09:41:45 GMT 51.794533 -2.444839 22,550 291 383 1280
2019-01-17 09:41:41 GMT 51.792023 -2.434140 22,450 291 382 1216
2019-01-17 09:41:38 GMT 51.790512 -2.427756 22,350 291 383 1280
2019-01-17 09:41:35 GMT 51.788544 -2.419219 22,350 291 383 1216
2019-01-17 09:41:32 GMT 51.786667 -2.411202 22,200 291 382 1216
2019-01-17 09:41:29 GMT 51.784149 -2.400513 22,175 291 382 1216
2019-01-17 09:41:26 GMT 51.782822 -2.394648 22,150 291 382 1216
2019-01-17 09:41:23 GMT 51.780289 -2.383957 21,975 291 382 1216
2019-01-17 09:41:20 GMT 51.778706 -2.377014 22,000 291 382 1216
2019-01-17 09:41:16 GMT 51.776192 -2.366409 21,950 291 382 1216
2019-01-17 09:41:13 GMT 51.774933 -2.361069 21,675 291 378 1344
2019-01-17 09:41:10 GMT 51.772705 -2.351445 21,725 291 382 1216
2019-01-17 09:41:07 GMT 51.770603 -2.342377 21,725 291 382 1216
2019-01-17 09:41:04 GMT 51.768585 -2.333852 21,675 291 382 1152
2019-01-17 09:41:01 GMT 51.766983 -2.326949 21,675 291 382 1152
2019-01-17 09:40:58 GMT 51.765244 -2.319526 21,525 291 380 1216
2019-01-17 09:40:55 GMT 51.763092 -2.310469 21,475 291 381 1088
2019-01-17 09:40:52 GMT 51.761246 -2.302475 21,450 291 381 1088
2019-01-17 09:40:49 GMT 51.759842 -2.296662 21,400 291 381 1088
2019-01-17 09:40:46 GMT 51.757736 -2.287606 21,325 291 380 1152
2019-01-17 09:40:43 GMT 51.755383 -2.277527 21,275 291 380 1216
2019-01-17 09:40:40 GMT 51.754120 -2.272240 21,000 291 379 1280
2019-01-17 09:40:37 GMT 51.752014 -2.263258 21,050 291 379 1280
2019-01-17 09:40:34 GMT 51.749889 -2.254257 21,050 291 379 1280
2019-01-17 09:40:31 GMT 51.747513 -2.244186 21,025 291 379 1280
2019-01-17 09:40:28 GMT 51.746155 -2.238390 20,800 291 379 1280
2019-01-17 09:40:24 GMT 51.744022 -2.229462 20,550 291 378 1280
2019-01-17 09:40:21 GMT 51.740204 -2.213077 20,750 291 378 1344
2019-01-17 09:40:18 GMT 51.740204 -2.213077 20,750 291 378 1344
2019-01-17 09:40:15 GMT 51.738190 -2.204615 20,675 291 378 1344
2019-01-17 09:40:12 GMT 51.736946 -2.199402 20,575 291 378 1344
2019-01-17 09:40:08 GMT 51.733829 -2.186203 20,550 291 378 1280
2019-01-17 09:40:04 GMT 51.729492 -2.167796 20,400 291 377 1216
2019-01-17 09:40:01 GMT 51.729492 -2.167796 20,375 291 377 1216
2019-01-17 09:39:58 GMT 51.728119 -2.162005 20,325 291 377 1216
2019-01-17 09:39:55 GMT 51.726151 -2.153617 18,700 291 376 1152
2019-01-17 09:39:52 GMT 51.724190 -2.145233 19,000 292 370 1024
2019-01-17 09:39:49 GMT 51.721817 -2.135315 20,125 291 375 1152
2019-01-17 09:39:45 GMT 51.719582 -2.125854 20,100 291 375 1152
2019-01-17 09:39:42 GMT 51.715897 -2.110266 19,875 291 374 1216
2019-01-17 09:39:39 GMT 51.715897 -2.110266 19,875 291 374 1216
2019-01-17 09:39:36 GMT 51.714432 -2.104030 19,375 291 373 1536
2019-01-17 09:39:33 GMT 51.712830 -2.097201 19,825 291 373 1280
2019-01-17 09:39:30 GMT 51.710739 -2.088394 19,775 292 370 1024
2019-01-17 09:39:27 GMT 51.709110 -2.081680 19,700 291 373 1344
2019-01-17 09:39:24 GMT 51.706547 -2.070770 19,550 291 373 1664
2019-01-17 09:39:21 GMT 51.704727 -2.062980 19,525 291 373 1664
2019-01-17 09:39:18 GMT 51.702850 -2.055186 19,400 291 373 1664
2019-01-17 09:39:15 GMT 51.701008 -2.047424 19,350 291 373 1472
2019-01-17 09:39:12 GMT 51.700150 -2.043754 19,025 292 372 1216
2019-01-17 09:39:09 GMT 51.697937 -2.034454 19,150 291 372 1088
2019-01-17 09:39:06 GMT 51.696213 -2.027206 19,175 292 372 1152
2019-01-17 09:39:03 GMT 51.693607 -2.016296 19,100 291 371 1024
2019-01-17 09:38:59 GMT 51.691406 -2.007009 19,025 292 370 1024
2019-01-17 09:38:56 GMT 51.689789 -2.000351 19,000 292 369 1088
2019-01-17 09:38:53 GMT 51.687695 -1.991577 18,925 292 368 1088
2019-01-17 09:38:50 GMT 51.685867 -1.983923 18,900 292 368 1088
2019-01-17 09:38:46 GMT 51.683304 -1.973159 18,800 292 366 1152
2019-01-17 09:38:43 GMT 51.682068 -1.968112 18,750 292 366 1152
2019-01-17 09:38:40 GMT 51.679962 -1.959426 18,700 292 366 1152
2019-01-17 09:38:37 GMT 51.675777 -1.942215 18,525 292 364 1088
2019-01-17 09:38:33 GMT 51.675777 -1.942215 18,525 292 364 1088
2019-01-17 09:38:30 GMT 51.673218 -1.931610 18,500 292 363 1088
2019-01-17 09:38:27 GMT 51.672363 -1.928101 18,425 292 363 1088
2019-01-17 09:38:24 GMT 51.670624 -1.921049 18,375 292 362 1088
2019-01-17 09:38:21 GMT 51.668518 -1.912512 17,300 289 351 1344
2019-01-17 09:38:18 GMT 51.666550 -1.904569 18,050 292 355 1280
2019-01-17 09:38:15 GMT 51.664169 -1.895067 18,200 292 361 1152
2019-01-17 09:38:12 GMT 51.662064 -1.886605 18,175 293 356 1280
2019-01-17 09:38:09 GMT 51.659958 -1.878217 18,075 293 359 1216
2019-01-17 09:38:06 GMT 51.658447 -1.872204 18,050 293 359 1216
2019-01-17 09:38:03 GMT 51.657211 -1.867305 18,000 293 359 1216
2019-01-17 09:38:00 GMT 51.655243 -1.859436 17,875 293 357 1280
2019-01-17 09:37:57 GMT 51.652733 -1.849518 17,825 293 357 1280
2019-01-17 09:37:54 GMT 51.651478 -1.844635 17,775 293 356 1280
2019-01-17 09:37:51 GMT 51.649750 -1.837760 17,750 293 356 1280
2019-01-17 09:37:48 GMT 51.647919 -1.830411 17,650 292 355 1344
2019-01-17 09:37:45 GMT 51.646179 -1.823582 17,550 292 355 1408
2019-01-17 09:37:42 GMT 51.643749 -1.813736 17,300 291 353 1024
2019-01-17 09:37:39 GMT 51.640209 -1.799011 17,400 291 354 1280
2019-01-17 09:37:36 GMT 51.640209 -1.799011 17,300 291 354 1088
2019-01-17 09:37:33 GMT 51.638580 -1.792108 17,275 290 353 960
2019-01-17 09:37:30 GMT 51.637138 -1.785736 17,225 290 352 1024
2019-01-17 09:37:27 GMT 51.633320 -1.767883 17,075 289 351 1408
2019-01-17 09:37:21 GMT 51.632298 -1.762924 16,850 289 350 1408
2019-01-17 09:37:18 GMT 51.630157 -1.752472 16,975 289 351 1408
2019-01-17 09:37:15 GMT 51.629364 -1.748505 16,575 289 349 1600
2019-01-17 09:37:11 GMT 51.626991 -1.737137 16,750 289 349 1536
2019-01-17 09:37:08 GMT 51.625546 -1.730270 16,675 289 349 1536
2019-01-17 09:37:05 GMT 51.624115 -1.723369 16,650 289 349 1536
2019-01-17 09:37:02 GMT 51.622284 -1.714535 15,900 289 349 1664
2019-01-17 09:36:59 GMT 51.621140 -1.709116 16,500 289 349 1664
2019-01-17 09:36:56 GMT 51.617821 -1.693344 16,200 289 349 1664
2019-01-17 09:36:50 GMT 51.616795 -1.688461 16,225 289 349 1664
2019-01-17 09:36:47 GMT 51.614979 -1.679611 16,125 289 349 1664
2019-01-17 09:36:44 GMT 51.613495 -1.672743 16,100 289 346 1216
2019-01-17 09:36:40 GMT 51.611343 -1.662424 15,925 289 349 1664
2019-01-17 09:36:37 GMT 51.609421 -1.653145 15,825 289 348 1600
2019-01-17 09:36:34 GMT 51.608185 -1.647281 15,375 289 341 1344
2019-01-17 09:36:31 GMT 51.606216 -1.637928 15,525 289 348 1536
2019-01-17 09:36:28 GMT 51.604877 -1.631546 15,350 289 348 1472
2019-01-17 09:36:25 GMT 51.603668 -1.625671 15,500 289 347 1472
2019-01-17 09:36:22 GMT 51.600780 -1.611481 15,400 289 342 1280
2019-01-17 09:36:19 GMT 51.600780 -1.611481 15,400 289 346 1216
2019-01-17 09:36:16 GMT 51.598984 -1.602668 15,300 289 345 1024
2019-01-17 09:36:13 GMT 51.597473 -1.595319 15,275 289 345 1024
2019-01-17 09:36:10 GMT 51.595570 -1.586151 15,200 288 343 1088
2019-01-17 09:36:07 GMT 51.594498 -1.580811 15,175 289 342 1216
2019-01-17 09:36:04 GMT 51.593033 -1.573569 15,075 289 341 1408
2019-01-17 09:36:01 GMT 51.591660 -1.566814 15,025 289 341 1472
2019-01-17 09:35:58 GMT 51.589935 -1.558075 14,975 289 340 1536
2019-01-17 09:35:55 GMT 51.589050 -1.553749 14,900 289 340 1536
2019-01-17 09:35:52 GMT 51.586990 -1.543728 14,600 289 339 1664
2019-01-17 09:35:49 GMT 51.585606 -1.537018 14,725 289 339 1664
2019-01-17 09:35:46 GMT 51.584442 -1.531219 14,600 289 338 1664
2019-01-17 09:35:43 GMT 51.582458 -1.521681 14,550 289 338 1664
2019-01-17 09:35:40 GMT 51.581314 -1.515965 14,425 289 338 1664
2019-01-17 09:35:37 GMT 51.579758 -1.508319 14,350 289 338 1728
2019-01-17 09:35:34 GMT 51.578388 -1.501617 14,075 289 338 1984
2019-01-17 09:35:31 GMT 51.576992 -1.494904 14,175 289 338 1920
2019-01-17 09:35:28 GMT 51.575550 -1.487732 14,125 289 338 1984
2019-01-17 09:35:25 GMT 51.573875 -1.479645 14,050 289 338 2048
2019-01-17 09:35:22 GMT 51.572205 -1.471500 13,750 289 340 2048
2019-01-17 09:35:19 GMT 51.570618 -1.463852 13,750 289 340 2048
2019-01-17 09:35:16 GMT 51.569870 -1.460037 13,700 289 340 1984
2019-01-17 09:35:13 GMT 51.568176 -1.451903 13,550 289 340 1984
2019-01-17 09:35:10 GMT 51.566895 -1.445667 13,125 289 340 1856
2019-01-17 09:35:07 GMT 51.563492 -1.429367 13,200 289 340 1856
2019-01-17 09:35:04 GMT 51.563492 -1.429367 13,175 289 340 1856
2019-01-17 09:35:01 GMT 51.562469 -1.424561 13,000 289 340 1856
2019-01-17 09:34:58 GMT 51.560795 -1.416397 12,825 290 340 1664
2019-01-17 09:34:55 GMT 51.559025 -1.408310 13,025 290 340 1984
2019-01-17 09:34:52 GMT 51.556046 -1.394447 12,825 290 340 2112
2019-01-17 09:34:49 GMT 51.556046 -1.394447 12,775 290 341 2048
2019-01-17 09:34:46 GMT 51.554077 -1.385391 12,575 290 341 1920
2019-01-17 09:34:43 GMT 51.553158 -1.381149 12,425 290 341 1920
2019-01-17 09:34:40 GMT 51.551697 -1.374404 12,025 290 336 2624
2019-01-17 09:34:37 GMT 51.549389 -1.363907 12,375 290 340 1664
2019-01-17 09:34:34 GMT 51.546066 -1.348720 12,150 290 339 1536
2019-01-17 09:34:31 GMT 51.546066 -1.348720 12,175 290 339 1536
2019-01-17 09:34:28 GMT 51.544785 -1.343004 12,125 290 339 1408
2019-01-17 09:34:25 GMT 51.543846 -1.338730 12,000 290 338 1088
2019-01-17 09:34:22 GMT 51.541801 -1.329727 11,525 290 335 1280
2019-01-17 09:34:19 GMT 51.540024 -1.321774 11,900 290 335 1280
2019-01-17 09:34:16 GMT 51.539005 -1.317062 11,900 290 335 1280
2019-01-17 09:34:13 GMT 51.537052 -1.308136 10,875 289 335 1664
2019-01-17 09:34:10 GMT 51.535656 -1.301575 11,725 289 334 1856
2019-01-17 09:34:07 GMT 51.533745 -1.292648 11,600 289 335 2496
2019-01-17 09:34:04 GMT 51.532722 -1.287918 11,525 290 335 2688
2019-01-17 09:34:01 GMT 51.531418 -1.281837 11,425 290 335 2688
2019-01-17 09:33:58 GMT 51.529976 -1.275253 11,225 290 336 2560
2019-01-17 09:33:55 GMT 51.526199 -1.258306 11,100 290 336 2112
2019-01-17 09:33:52 GMT 51.526199 -1.258306 10,950 290 337 1856
2019-01-17 09:33:49 GMT 51.525459 -1.255035 10,750 291 336 1600
2019-01-17 09:33:46 GMT 51.523361 -1.245612 10,675 290 326 1408
2019-01-17 09:33:43 GMT 51.521301 -1.236704 10,725 291 333 704
2019-01-17 09:33:37 GMT 51.518326 -1.223714 10,625 291 332 576
2019-01-17 09:33:34 GMT 51.516769 -1.216736 10,600 290 330 576
2019-01-17 09:33:31 GMT 51.515404 -1.210785 10,575 290 327 1280
2019-01-17 09:33:28 GMT 51.514389 -1.206195 10,525 290 326 1408
2019-01-17 09:33:25 GMT 51.512424 -1.197586 10,375 290 325 1536
2019-01-17 09:33:22 GMT 51.510773 -1.190309 10,375 290 325 1600
2019-01-17 09:33:19 GMT 51.509121 -1.183090 10,225 290 324 1344
2019-01-17 09:33:16 GMT 51.507614 -1.176279 10,225 290 323 1280
2019-01-17 09:33:13 GMT 51.506607 -1.171751 10,125 290 322 1152
2019-01-17 09:33:10 GMT 51.504318 -1.161433 10,075 290 319 768
2019-01-17 09:33:07 GMT 51.503357 -1.156979 10,025 289 316 704
2019-01-17 09:33:04 GMT 51.501938 -1.150298 10,000 289 315 704
2019-01-17 09:33:01 GMT 51.500336 -1.142727 9,950 289 312 832
2019-01-17 09:32:58 GMT 51.497341 -1.128769 9,875 289 308 704
2019-01-17 09:32:55 GMT 51.497341 -1.128769 9,875 289 308 704
2019-01-17 09:32:51 GMT 51.495804 -1.121422 9,825 289 305 640
2019-01-17 09:32:48 GMT 51.494781 -1.116714 9,800 289 305 640
2019-01-17 09:32:45 GMT 51.493195 -1.109025 9,750 289 300 704
2019-01-17 09:32:42 GMT 51.491570 -1.101456 9,725 289 297 704
2019-01-17 09:32:39 GMT 51.490219 -1.095144 9,675 289 295 704
2019-01-17 09:32:36 GMT 51.489258 -1.090542 9,625 289 292 704
2019-01-17 09:32:33 GMT 51.487518 -1.082302 9,600 289 290 768
2019-01-17 09:32:30 GMT 51.486237 -1.076215 9,525 289 287 832
2019-01-17 09:32:27 GMT 51.485287 -1.071701 9,525 289 286 832
2019-01-17 09:32:23 GMT 51.482353 -1.057739 9,425 289 281 832
2019-01-17 09:32:20 GMT 51.482353 -1.057739 9,325 289 273 704
2019-01-17 09:32:17 GMT 51.481140 -1.051788 9,375 289 279 768
2019-01-17 09:32:14 GMT 51.479919 -1.045928 9,325 288 269 640
2019-01-17 09:32:11 GMT 51.478409 -1.038505 9,275 289 272 704
2019-01-17 09:32:08 GMT 51.475800 -1.025960 8,950 288 268 640
2019-01-17 09:32:05 GMT 51.475800 -1.025960 9,200 288 266 704
2019-01-17 09:32:02 GMT 51.475388 -1.023659 9,175 288 266 704
2019-01-17 09:31:59 GMT 51.473137 -1.012497 9,100 288 258 1408
2019-01-17 09:31:56 GMT 51.471954 -1.006585 9,050 288 259 1280
2019-01-17 09:31:53 GMT 51.471954 -1.006585 8,600 287 255 1280
2019-01-17 09:31:50 GMT 51.470627 -1.000053 8,825 289 257 1472
2019-01-17 09:31:47 GMT 51.469208 -0.993149 8,900 289 257 1472
2019-01-17 09:31:44 GMT 51.467316 -0.983734 8,775 288 256 1408
2019-01-17 09:31:41 GMT 51.467316 -0.983734 8,700 288 256 1408
2019-01-17 09:31:38 GMT 51.466370 -0.979045 8,675 288 256 1408
2019-01-17 09:31:35 GMT 51.465408 -0.974350 8,575 288 256 1344
2019-01-17 09:31:32 GMT 51.464245 -0.968170 8,375 286 256 1280
2019-01-17 09:31:29 GMT 51.463264 -0.962753 8,375 285 256 1216
2019-01-17 09:31:26 GMT 51.462067 -0.955736 8,350 284 256 1216
2019-01-17 09:31:23 GMT 51.461380 -0.950985 8,300 283 256 1152
2019-01-17 09:31:20 GMT 51.460705 -0.946121 8,225 282 256 1216
2019-01-17 09:31:17 GMT 51.459824 -0.938737 8,125 281 254 1664
2019-01-17 09:31:14 GMT 51.459274 -0.934283 8,050 281 254 1728
2019-01-17 09:31:10 GMT 51.457867 -0.922470 7,825 282 251 1920
2019-01-17 09:31:07 GMT 51.457867 -0.922470 7,775 282 252 1920
2019-01-17 09:31:04 GMT 51.457123 -0.916214 7,600 282 251 1920
2019-01-17 09:31:00 GMT 51.456161 -0.908896 7,525 282 252 1920
2019-01-17 09:30:57 GMT 51.455490 -0.903397 7,250 274 255 1088
2019-01-17 09:30:54 GMT 51.454742 -0.897538 7,425 281 252 1920
2019-01-17 09:30:51 GMT 51.453674 -0.887604 7,200 272 254 1920
2019-01-17 09:30:48 GMT 51.453674 -0.887604 7,125 274 255 1088
2019-01-17 09:30:45 GMT 51.453323 -0.882321 7,050 272 257 1088
2019-01-17 09:30:42 GMT 51.453094 -0.874378 7,025 271 257 1152
2019-01-17 09:30:39 GMT 51.453117 -0.867996 6,250 269 258 2304
2019-01-17 09:30:36 GMT 51.453213 -0.863037 6,625 270 258 2304
2019-01-17 09:30:33 GMT 51.453278 -0.857305 6,725 269 258 2304
2019-01-17 09:30:30 GMT 51.453369 -0.852331 6,675 269 258 2304
2019-01-17 09:30:27 GMT 51.453415 -0.846987 6,475 269 258 2304
2019-01-17 09:30:24 GMT 51.453491 -0.842056 6,375 270 258 2304
2019-01-17 09:30:21 GMT 51.453552 -0.835109 6,250 270 258 2112
2019-01-17 09:30:17 GMT 51.453598 -0.827909 6,150 270 258 2048
2019-01-17 09:30:14 GMT 51.453674 -0.816422 5,900 270 257 1984
2019-01-17 09:30:11 GMT 51.453674 -0.816422 5,900 270 257 1984
2019-01-17 09:30:08 GMT 51.453690 -0.810316 5,200 270 257 1984
2019-01-17 09:30:05 GMT 51.453690 -0.804229 5,750 270 257 1984
2019-01-17 09:30:02 GMT 51.453690 -0.801185 5,625 271 256 1984
2019-01-17 09:29:59 GMT 51.453674 -0.794754 5,500 271 256 1984
2019-01-17 09:29:56 GMT 51.453674 -0.789871 5,375 271 255 1984
2019-01-17 09:29:52 GMT 51.453598 -0.781514 5,250 271 255 1984
2019-01-17 09:29:49 GMT 51.453537 -0.774002 5,150 272 253 1536
2019-01-17 09:29:46 GMT 51.453445 -0.769501 5,000 272 253 1856
2019-01-17 09:29:42 GMT 51.453278 -0.758947 4,875 272 253 1664
2019-01-17 09:29:39 GMT 51.453213 -0.755615 4,800 272 252 1344
2019-01-17 09:29:36 GMT 51.453163 -0.751877 4,725 273 251 1536
2019-01-17 09:29:33 GMT 51.453026 -0.745544 4,700 273 251 1664
2019-01-17 09:29:30 GMT 51.452839 -0.738525 4,550 273 250 2240
2019-01-17 09:29:27 GMT 51.452728 -0.733709 4,450 273 250 2240
2019-01-17 09:29:24 GMT 51.452606 -0.727768 4,400 273 250 2240
2019-01-17 09:29:21 GMT 51.452465 -0.722656 4,300 273 250 2240
2019-01-17 09:29:18 GMT 51.452328 -0.716324 4,150 272 251 2048
2019-01-17 09:29:15 GMT 51.452278 -0.712585 4,000 271 252 1984
2019-01-17 09:29:12 GMT 51.452225 -0.707059 3,925 269 253 1728
2019-01-17 09:29:08 GMT 51.452328 -0.698853 3,650 267 254 1472
2019-01-17 09:29:05 GMT 51.452499 -0.693549 3,175 264 254 1344
2019-01-17 09:29:02 GMT 51.452820 -0.687611 3,600 261 255 1344
2019-01-17 09:28:59 GMT 51.453350 -0.681686 3,550 258 256 1536
2019-01-17 09:28:56 GMT 51.454193 -0.674991 3,375 256 255 1664
2019-01-17 09:28:52 GMT 51.455353 -0.667267 3,300 256 255 1856
2019-01-17 09:28:48 GMT 51.457355 -0.655289 3,025 255 254 1856
2019-01-17 09:28:45 GMT 51.457355 -0.655289 3,050 256 253 1664
2019-01-17 09:28:42 GMT 51.459045 -0.645150 2,900 256 248 1088
2019-01-17 09:28:39 GMT 51.459045 -0.645150 2,900 256 250 1280
2019-01-17 09:28:36 GMT 51.459824 -0.640473 2,800 256 246 960
2019-01-17 09:28:33 GMT 51.460876 -0.634089 2,775 256 246 960
2019-01-17 09:28:30 GMT 51.461590 -0.629883 2,725 256 243 896
2019-01-17 09:28:27 GMT 51.462341 -0.625330 2,700 256 240 896
2019-01-17 09:28:24 GMT 51.463314 -0.619507 2,600 256 235 832
2019-01-17 09:28:21 GMT 51.464104 -0.614395 2,575 256 232 832
2019-01-17 09:28:18 GMT 51.465176 -0.608063 2,475 256 227 896
2019-01-17 09:28:13 GMT 51.466339 -0.600815 2,450 256 222 896
2019-01-17 09:28:10 GMT 51.467148 -0.595711 2,425 256 219 896
2019-01-17 09:28:07 GMT 51.467968 -0.590591 2,375 257 200 576
2019-01-17 09:28:04 GMT 51.468853 -0.584946 2,325 257 213 448
2019-01-17 09:28:00 GMT 51.469738 -0.579376 2,275 257 211 256
2019-01-17 09:27:57 GMT 51.470169 -0.576337 2,275 257 208 256
2019-01-17 09:27:53 GMT 51.471222 -0.569507 2,250 257 202 640
2019-01-17 09:27:50 GMT 51.471924 -0.565109 2,200 257 198 512
2019-01-17 09:27:47 GMT 51.472595 -0.560451 2,175 257 190 512
2019-01-17 09:27:44 GMT 51.473236 -0.556220 2,150 257 193 512
2019-01-17 09:27:40 GMT 51.474113 -0.550385 2,125 257 190 448
2019-01-17 09:27:36 GMT 51.474976 -0.544566 2,100 257 185 640
2019-01-17 09:27:32 GMT 51.475525 -0.541077 2,050 258 182 768
2019-01-17 09:27:29 GMT 51.476120 -0.537068 2,050 258 181 768
2019-01-17 09:27:26 GMT 51.476997 -0.528793 2,000 266 169 832
2019-01-17 09:27:20 GMT 51.477234 -0.523071 1,975 270 165 832
2019-01-17 09:27:17 GMT 51.477234 -0.520096 1,925 270 162 768
2019-01-17 09:27:14 GMT 51.477234 -0.516739 1,875 270 162 896
2019-01-17 09:27:10 GMT 51.477234 -0.512161 1,750 270 161 2112
2019-01-17 09:27:07 GMT 51.477280 -0.509338 1,625 270 160 2560
2019-01-17 09:27:03 GMT 51.477325 -0.500336 1,475 270 162 2688
2019-01-17 09:27:00 GMT 51.477310 -0.497206 1,350 269 163 2688
2019-01-17 09:26:57 GMT 51.477310 -0.497206 1,225 269 163 2624
2019-01-17 09:26:54 GMT 51.477356 -0.492603 1,100 269 163 2432
2019-01-17 09:26:49 GMT 51.477448 -0.487258 875 269 164 2560
2019-01-17 09:26:46 GMT 51.477467 -0.484390 775 270 166 2688
2019-01-17 09:26:43 GMT 51.477493 -0.480726 600 270 168 2560
2019-01-17 09:26:40 GMT 51.477512 -0.476227 475 270 170 2496
2019-01-17 09:26:35 GMT 51.477604 -0.462170 0 270 160
2019-01-17 09:26:21 GMT 51.477627 -0.454311 0 270 135
2019-01-17 09:26:13 GMT 51.477650 -0.445843 0 270 105
2019-01-17 09:25:59 GMT 51.477676 -0.437950 0 270 50
2019-01-17 09:24:03 GMT 51.476166 -0.435333 0 42 6
2019-01-17 09:24:00 GMT 51.476139 -0.435371 0 42 5
2019-01-17 09:23:50 GMT 51.476017 -0.435649 0 30 6
2019-01-17 09:23:38 GMT 51.475777 -0.435909 0 2 7
2019-01-17 09:23:27 GMT 51.475445 -0.435927 0 0 7
2019-01-17 09:23:18 GMT 51.475231 -0.435905 0 2 6
2019-01-17 09:23:09 GMT 51.475033 -0.435867 0 16 6
We lost coverage of the aircraft here for a total of 5 minutes
2019-01-17 09:18:03 GMT 51.474510 -0.436974 0 109 4
2019-01-17 09:17:41 GMT 51.474716 -0.437508 0 143 4
2019-01-17 09:17:36 GMT 51.474812 -0.437565 0 129 6
2019-01-17 09:15:56 GMT 51.475056 -0.442715 0 90 9
2019-01-17 09:15:38 GMT 51.475044 -0.443649 0 90 7
2019-01-17 09:13:09 GMT 51.475090 -0.454467 0 90 9
2019-01-17 09:12:48 GMT 51.475079 -0.456434 0 90 17
2019-01-17 09:08:12 GMT 51.471645 -0.463428 0 326 9
2019-01-17 09:07:13 GMT 51.470634 -0.462303 0 323 0
2019-01-17 09:06:43 GMT 51.470638 -0.462298 0 323 0

Making use of Plane Finder data

You are free to use the raw flight data, aircraft information and images provided in this report for your own purposes provided the data is correctly attributed to Plane Finder. We ask that you please credit Plane Finder and link to planefinder.net in close proximity to the content.

Optionally one of the following logos (no smaller then 150x24px) can be used and must link to planefinder.net

Embedding the Plane Finder map

You are welcome to embed the Plane Finder playback map on your website to offer visitors a more interactive experience. We suggest using the following HTML code:

<iframe src="//planefinder.net/data/report/VS3-G-VSXY-7700-squawk-2019-01-17/map" width="800" height="600" seamless="seamless"></iframe>

Where our data comes from

Plane Finder has a global network of data feeds and antenna radars that receive data broadcast directly from aircraft. The primary technologies used are ADS-B and MLAT. We also show feeds from the FAA and a FLARM glider feed.

Click here to find out more about the Plane Finder network.

How we collect our data